Provisional Data: Kishacoquillas Creek near Belleville, PA


Please select a monitoring station.
Please select start date.
Please select start date.

Toggle Unit: C/F Toggle Unit: C/F
Sample Time Temperature (C) Temperature (F) Specific Conductivity (mS/cm) pH   Turbidity (NTU+) DO (mg/L)
2/8/2021 11:15:00 AM -99999.99 -179968 -99999.99 -99999.99 -99999.99 -99999.99
2/8/2021 3:30:00 PM -99999.99 -179968 -99999.99 -99999.99 -99999.99 -99999.99
2/8/2021 3:45:00 PM -99999.99 -179968 -99999.99 -99999.99 -99999.99 -99999.99
2/8/2021 4:00:00 PM -99999.99 -179968 -99999.99 -99999.99 -99999.99 -99999.99
2/8/2021 4:15:00 PM -99999.99 -179968 -99999.99 -99999.99 -99999.99 -99999.99
2/8/2021 4:30:00 PM -99999.99 -179968 -99999.99 -99999.99 -99999.99 -99999.99
2/17/2021 9:45:00 AM 1.46 34.628 0.488 7.6 8.64 14.29
2/17/2021 10:00:00 AM 1.59 34.862 0.489 7.63 7.68 14.49
2/17/2021 10:15:00 AM 1.72 35.096 0.49 7.68 7.74 14.67
2/17/2021 10:30:00 AM 1.87 35.366 0.49 7.7 7.79 14.85
2/17/2021 10:45:00 AM 2.02 35.636 0.491 7.72 7.02 15.01
2/17/2021 11:00:00 AM 2.22 35.996 0.492 7.74 7.41 15.16
2/17/2021 11:15:00 AM 2.42 36.356 0.492 7.76 9.79 15.31
2/17/2021 11:30:00 AM 2.59 36.662 0.492 7.79 7.04 15.44
2/17/2021 11:45:00 AM 2.75 36.95 0.493 7.81 7.41 15.51
2/17/2021 12:00:00 PM 2.91 37.238 0.493 7.84 6.68 15.62
2/17/2021 12:15:00 PM 3.05 37.49 0.493 7.87 6.59 15.69
2/17/2021 12:30:00 PM 3.2 37.76 0.493 7.89 6.9 15.8
2/17/2021 12:45:00 PM 3.27 37.886 0.493 7.91 6.67 15.83
2/17/2021 1:00:00 PM 3.36 38.048 0.493 7.93 6.35 15.86
2/17/2021 1:15:00 PM 3.45 38.21 0.492 7.95 7.73 15.91
2/17/2021 1:30:00 PM 3.53 38.354 0.492 7.97 7.83 15.91
2/17/2021 1:45:00 PM 3.63 38.534 0.491 7.99 8.28 15.98
2/17/2021 2:00:00 PM 3.82 38.876 0.49 8 10.3 15.99
2/17/2021 2:15:00 PM 3.99 39.182 0.489 8.02 23.6 16
2/17/2021 2:30:00 PM 4.15 39.47 0.488 8.04 23.51 16.01
2/17/2021 2:45:00 PM 4.33 39.794 0.487 8.05 34.71 16
2/17/2021 3:00:00 PM 4.44 39.992 0.485 8.06 58.67 15.98
2/17/2021 3:15:00 PM 4.49 40.082 0.482 8.14 178 15.93
2/17/2021 3:30:00 PM 4.57 40.226 0.48 8.14 163.2 15.9
2/17/2021 3:45:00 PM 4.57 40.226 0.478 8.08 243.5 15.84
2/17/2021 4:00:00 PM 4.58 40.244 0.476 8.15 262.1 15.75
2/17/2021 4:15:00 PM 4.58 40.244 0.473 8.13 353.2 15.66
2/17/2021 4:30:00 PM 4.6 40.28 0.471 8.12 243 15.6
2/17/2021 4:45:00 PM 4.55 40.19 0.469 8.09 529.9 15.45
2/17/2021 5:00:00 PM 4.52 40.136 0.468 8.08 968.6 15.31
2/17/2021 5:15:00 PM 4.45 40.01 0.467 8.07 1144 15.16
2/17/2021 5:30:00 PM 4.36 39.848 0.466 8.08 1215 14.96
2/17/2021 5:45:00 PM 4.28 39.704 0.467 8.12 1258 14.77
2/17/2021 6:00:00 PM 4.21 39.578 0.467 8.1 1263 14.56
2/17/2021 6:15:00 PM 4.15 39.47 0.468 8.09 1211 14.36
2/17/2021 6:30:00 PM 4.11 39.398 0.47 8.07 1171 14.17
2/17/2021 6:45:00 PM 4.06 39.308 0.471 8.06 1022 14
2/17/2021 7:00:00 PM 4.04 39.272 0.473 8.04 765.9 13.81
2/17/2021 7:15:00 PM 4.03 39.254 0.474 8.03 602.4 13.67
2/17/2021 7:30:00 PM 4.02 39.236 0.475 8.01 542.9 13.51
2/17/2021 7:45:00 PM 4.03 39.254 0.476 8 358.2 13.37
2/17/2021 8:00:00 PM 4.02 39.236 0.477 7.98 230.5 13.24
2/17/2021 8:15:00 PM 4.01 39.218 0.479 7.97 337 13.1
2/17/2021 8:30:00 PM 4.01 39.218 0.481 7.96 79.84 12.98
2/17/2021 8:45:00 PM 4 39.2 0.484 7.95 41.83 12.85
2/17/2021 9:00:00 PM 4.01 39.218 0.487 7.94 20.59 12.76
2/17/2021 9:15:00 PM 4.02 39.236 0.491 7.93 10.22 12.65
2/17/2021 9:30:00 PM 4.02 39.236 0.495 7.92 7.32 12.56
2/17/2021 9:45:00 PM 4.02 39.236 0.498 7.91 6.48 12.45
2/17/2021 10:00:00 PM 4.03 39.254 0.5 7.9 6.36 12.37
2/17/2021 10:15:00 PM 4.04 39.272 0.501 7.89 6.59 12.27
2/17/2021 10:30:00 PM 4.03 39.254 0.5 7.89 7.02 12.18
2/17/2021 10:45:00 PM 4.02 39.236 0.498 7.88 7.08 12.11
2/17/2021 11:00:00 PM 4.03 39.254 0.497 7.87 6.57 12.04
2/17/2021 11:15:00 PM 4.02 39.236 0.495 7.87 8.17 11.96
2/17/2021 11:30:00 PM 4.02 39.236 0.494 7.86 6.3 11.93
2/17/2021 11:45:00 PM 4.01 39.218 0.494 7.85 6.23 11.87
2/18/2021 12:00:00 AM 3.99 39.182 0.495 7.85 6.29 11.84
2/18/2021 12:15:00 AM 3.94 39.092 0.496 7.85 6.76 11.82
2/18/2021 12:30:00 AM 3.88 38.984 0.498 7.84 6.14 11.81
2/18/2021 12:45:00 AM 3.83 38.894 0.5 7.84 6.14 11.79
2/18/2021 1:00:00 AM 3.79 38.822 0.502 7.84 6.55 11.76
2/18/2021 1:15:00 AM 3.75 38.75 0.504 7.84 6.27 11.76
2/18/2021 1:30:00 AM 3.66 38.588 0.506 7.84 5.93 11.76
2/18/2021 1:45:00 AM 3.62 38.516 0.508 7.84 5.37 11.76
2/18/2021 2:00:00 AM 3.56 38.408 0.509 7.83 6.2 11.76
2/18/2021 2:15:00 AM 3.51 38.318 0.51 7.84 6.67 11.76
2/18/2021 2:30:00 AM 3.47 38.246 0.511 7.84 6.4 11.75
2/18/2021 2:45:00 AM 3.44 38.192 0.511 7.83 6.74 11.78
2/18/2021 3:00:00 AM 3.4 38.12 0.512 7.83 5.84 11.78
2/18/2021 3:15:00 AM 3.38 38.084 0.513 7.83 6.25 11.8
2/18/2021 3:30:00 AM 3.34 38.012 0.514 7.83 6.13 11.8
2/18/2021 3:45:00 AM 3.29 37.922 0.515 7.83 5.92 11.8
2/18/2021 4:00:00 AM 3.23 37.814 0.515 7.83 7.22 11.84
2/18/2021 4:15:00 AM 3.18 37.724 0.515 7.83 5.83 11.84
2/18/2021 4:30:00 AM 3.14 37.652 0.515 7.83 6.17 11.88
2/18/2021 4:45:00 AM 3.1 37.58 0.514 7.83 5.66 11.89
2/18/2021 5:00:00 AM 3.08 37.544 0.514 7.83 5.93 11.9
2/18/2021 5:15:00 AM 3.05 37.49 0.514 7.83 6.33 11.94
2/18/2021 5:30:00 AM 3.02 37.436 0.514 7.83 6.54 11.94
2/18/2021 5:45:00 AM 2.99 37.382 0.513 7.83 6.81 11.98
2/18/2021 6:00:00 AM 2.95 37.31 0.513 7.83 5.46 11.99
2/18/2021 6:15:00 AM 2.91 37.238 0.513 7.83 6.67 12.02
2/18/2021 6:30:00 AM 2.87 37.166 0.513 7.83 5.8 12.04
2/18/2021 6:45:00 AM 2.83 37.094 0.513 7.83 5.32 12.06
2/18/2021 7:00:00 AM 2.79 37.022 0.513 7.83 6.56 12.09
2/18/2021 7:15:00 AM 2.76 36.968 0.513 7.83 5.3 12.11
2/18/2021 7:30:00 AM 2.75 36.95 0.512 7.83 5.66 12.17
2/18/2021 7:45:00 AM 2.71 36.878 0.512 7.84 6.35 12.23
2/18/2021 8:00:00 AM 2.68 36.824 0.511 7.84 5.84 12.33
2/18/2021 8:15:00 AM 2.63 36.734 0.51 7.85 5.52 12.45
2/18/2021 8:30:00 AM 2.57 36.626 0.51 7.86 5.31 12.56
2/18/2021 8:45:00 AM 2.52 36.536 0.509 7.87 5.14 12.72
2/18/2021 9:00:00 AM 2.46 36.428 0.508 7.88 4.74 12.9
2/18/2021 9:15:00 AM 2.41 36.338 0.507 7.89 5.17 13.08
2/18/2021 9:30:00 AM 2.39 36.302 0.506 7.9 5.45 13.31
2/18/2021 9:45:00 AM 2.4 36.32 0.506 7.92 4.83 13.52
2/18/2021 10:00:00 AM 2.44 36.392 0.505 7.93 4.41 13.77
2/18/2021 10:15:00 AM 2.49 36.482 0.505 7.95 4.6 14
2/18/2021 10:30:00 AM 2.55 36.59 0.505 7.96 4.55 14.16
2/18/2021 10:45:00 AM 2.59 36.662 0.505 7.98 4.82 14.31
2/18/2021 11:00:00 AM 2.62 36.716 0.504 7.99 4.52 14.44
2/18/2021 11:15:00 AM 2.65 36.77 0.504 8 5.8 14.57
2/18/2021 11:30:00 AM 2.68 36.824 0.504 8.01 4.38 14.68
2/18/2021 11:45:00 AM 2.7 36.86 0.504 8.02 4.4 14.77
2/18/2021 12:00:00 PM 2.74 36.932 0.503 8.04 4 14.89
2/18/2021 12:15:00 PM 2.78 37.004 0.503 8.04 4.14 14.97
2/18/2021 12:30:00 PM 2.82 37.076 0.502 8.06 4.43 15.06
2/18/2021 12:45:00 PM 2.86 37.148 0.502 8.07 4.1 15.13
2/18/2021 1:00:00 PM 2.89 37.202 0.501 8.08 3.82 15.2
2/18/2021 1:15:00 PM 2.94 37.292 0.501 8.09 4.32 15.3
2/18/2021 1:30:00 PM 2.97 37.346 0.5 8.09 4.14 15.39
2/18/2021 1:45:00 PM 3.01 37.418 0.499 8.11 4.13 15.47
2/18/2021 2:00:00 PM 3.05 37.49 0.498 8.12 4.2 15.6
2/18/2021 2:15:00 PM 3.09 37.562 0.497 8.13 4.21 15.72
2/18/2021 2:30:00 PM 3.13 37.634 0.497 8.14 4.33 15.82
2/18/2021 2:45:00 PM 3.17 37.706 0.496 8.15 4.22 15.91
2/18/2021 3:00:00 PM 3.23 37.814 0.495 8.17 4.39 16.01
2/18/2021 3:15:00 PM 3.26 37.868 0.495 8.18 4.11 16
2/18/2021 3:30:00 PM 3.29 37.922 0.494 8.18 4.58 15.96
2/18/2021 3:45:00 PM 3.32 37.976 0.493 8.19 4.25 15.93
2/18/2021 4:00:00 PM 3.34 38.012 0.493 8.19 4.31 15.89
2/18/2021 4:15:00 PM 3.35 38.03 0.492 8.2 3.9 15.81
2/18/2021 4:30:00 PM 3.36 38.048 0.491 8.2 4.1 15.67
2/18/2021 4:45:00 PM 3.37 38.066 0.491 8.19 4.05 15.54
2/18/2021 5:00:00 PM 3.38 38.084 0.491 8.19 3.93 15.41
2/18/2021 5:15:00 PM 3.38 38.084 0.49 8.18 4.51 15.21
2/18/2021 5:30:00 PM 3.38 38.084 0.49 8.17 4.61 15.02
2/18/2021 5:45:00 PM 3.37 38.066 0.491 8.16 3.98 14.79
2/18/2021 6:00:00 PM 3.36 38.048 0.491 8.14 4.33 14.56
2/18/2021 6:15:00 PM 3.35 38.03 0.491 8.12 4.28 14.36
2/18/2021 6:30:00 PM 3.34 38.012 0.49 8.1 4.02 14.16
2/18/2021 6:45:00 PM 3.31 37.958 0.491 8.09 4.09 13.99
2/18/2021 7:00:00 PM 3.29 37.922 0.492 8.08 3.98 13.82
2/18/2021 7:15:00 PM 3.26 37.868 0.492 8.06 4.27 13.69
2/18/2021 7:30:00 PM 3.23 37.814 0.493 8.05 4.32 13.55
2/18/2021 7:45:00 PM 3.18 37.724 0.493 8.04 4.05 13.44
2/18/2021 8:00:00 PM 3.15 37.67 0.493 8.03 3.98 13.33
2/18/2021 8:15:00 PM 3.12 37.616 0.493 8.02 4.19 13.23
2/18/2021 8:30:00 PM 3.1 37.58 0.493 8.01 4.42 13.14
2/18/2021 8:45:00 PM 3.08 37.544 0.493 8 5.06 13.06
2/18/2021 9:00:00 PM 3.07 37.526 0.493 7.99 4.49 12.97
2/18/2021 9:15:00 PM 3.05 37.49 0.492 7.98 4.59 12.88
2/18/2021 9:30:00 PM 3.03 37.454 0.492 7.98 4.27 12.83
2/18/2021 9:45:00 PM 3.03 37.454 0.492 7.97 4.53 12.75
2/18/2021 10:00:00 PM 3.02 37.436 0.492 7.96 4.35 12.69
2/18/2021 10:15:00 PM 3.01 37.418 0.492 7.95 4.17 12.65
2/18/2021 10:30:00 PM 3 37.4 0.492 7.94 3.88 12.58
2/18/2021 10:45:00 PM 2.99 37.382 0.492 7.94 4.19 12.52
2/18/2021 11:00:00 PM 2.97 37.346 0.492 7.93 4.06 12.47
2/18/2021 11:15:00 PM 2.97 37.346 0.493 7.92 4.07 12.45
2/18/2021 11:30:00 PM 2.95 37.31 0.493 7.92 4.15 12.38
2/18/2021 11:45:00 PM 2.93 37.274 0.494 7.91 4.84 12.36
2/19/2021 12:00:00 AM 2.92 37.256 0.494 7.91 4 12.32
2/19/2021 12:15:00 AM 2.91 37.238 0.494 7.9 4.02 12.29
2/19/2021 12:30:00 AM 2.91 37.238 0.494 7.9 4.46 12.28
2/19/2021 12:45:00 AM 2.91 37.238 0.494 7.89 4.33 12.25
2/19/2021 1:00:00 AM 2.91 37.238 0.493 7.89 4.29 12.24
2/19/2021 1:15:00 AM 2.89 37.202 0.493 7.89 4.63 12.22
2/19/2021 1:30:00 AM 2.89 37.202 0.493 7.89 4.29 12.21
2/19/2021 1:45:00 AM 2.88 37.184 0.492 7.88 4.15 12.21
2/19/2021 2:00:00 AM 2.86 37.148 0.492 7.88 4.64 12.21
2/19/2021 2:15:00 AM 2.85 37.13 0.492 7.88 3.97 12.17
2/19/2021 2:30:00 AM 2.84 37.112 0.492 7.88 4.04 12.18
2/19/2021 2:45:00 AM 2.81 37.058 0.493 7.88 3.77 12.19
2/19/2021 3:00:00 AM 2.79 37.022 0.493 7.88 3.9 12.18
2/19/2021 3:15:00 AM 2.78 37.004 0.494 7.87 3.79 12.18
2/19/2021 3:30:00 AM 2.77 36.986 0.495 7.87 3.87 12.17
2/19/2021 3:45:00 AM 2.77 36.986 0.495 7.87 3.95 12.18
2/19/2021 4:00:00 AM 2.77 36.986 0.496 7.87 3.55 12.17
2/19/2021 4:15:00 AM 2.78 37.004 0.497 7.87 3.82 12.18
2/19/2021 4:30:00 AM 2.78 37.004 0.497 7.87 4 12.15
2/19/2021 4:45:00 AM 2.79 37.022 0.497 7.86 4.16 12.15
2/19/2021 5:00:00 AM 2.79 37.022 0.498 7.86 4.83 12.15
2/19/2021 5:15:00 AM 2.79 37.022 0.498 7.86 4.09 12.14
2/19/2021 5:30:00 AM 2.8 37.04 0.499 7.86 3.92 12.15
2/19/2021 5:45:00 AM 2.8 37.04 0.499 7.86 4.27 12.16
2/19/2021 6:00:00 AM 2.8 37.04 0.5 7.86 4.22 12.16
2/19/2021 6:15:00 AM 2.81 37.058 0.501 7.86 5.4 12.14
2/19/2021 6:30:00 AM 2.82 37.076 0.502 7.85 4.16 12.16
2/19/2021 6:45:00 AM 2.82 37.076 0.503 7.85 4.04 12.14
2/19/2021 7:00:00 AM 2.83 37.094 0.503 7.85 4.3 12.15
2/19/2021 7:15:00 AM 2.84 37.112 0.504 7.85 3.98 12.17
2/19/2021 7:30:00 AM 2.85 37.13 0.504 7.85 4.59 12.2
2/19/2021 7:45:00 AM 2.86 37.148 0.505 7.86 4.25 12.3
2/19/2021 8:00:00 AM 2.88 37.184 0.505 7.87 4.72 12.42
2/19/2021 8:15:00 AM 2.91 37.238 0.504 7.88 4.49 12.62
2/19/2021 8:30:00 AM 2.96 37.328 0.503 7.89 4.41 12.85
2/19/2021 8:45:00 AM 3.01 37.418 0.502 7.91 4.8 13.13
2/19/2021 9:00:00 AM 3.07 37.526 0.501 7.92 3.92 13.35
2/19/2021 9:15:00 AM 3.12 37.616 0.5 7.94 4.29 13.56
2/19/2021 9:30:00 AM 3.19 37.742 0.5 7.95 4.16 13.79
2/19/2021 9:45:00 AM 3.27 37.886 0.499 7.97 4.63 13.98
2/19/2021 10:00:00 AM 3.38 38.084 0.499 7.99 3.83 14.2
2/19/2021 10:15:00 AM 3.51 38.318 0.498 8 4.14 14.43
2/19/2021 10:30:00 AM 3.68 38.624 0.497 8.02 4.15 14.68
2/19/2021 10:45:00 AM 3.83 38.894 0.496 8.04 3.93 14.89
2/19/2021 11:00:00 AM 4.01 39.218 0.496 8.06 3.66 15.09
2/19/2021 11:15:00 AM 4.18 39.524 0.495 8.08 3.63 15.28
2/19/2021 11:30:00 AM 4.34 39.812 0.494 8.1 3.63 15.42
2/19/2021 11:45:00 AM 4.47 40.046 0.495 8.12 3.61 15.53
2/19/2021 12:00:00 PM 4.58 40.244 0.496 8.13 3.56 15.58
2/19/2021 12:15:00 PM 4.68 40.424 0.495 8.14 3.82 15.65
2/19/2021 12:30:00 PM 4.77 40.586 0.495 8.15 3.71 15.71
2/19/2021 12:45:00 PM 4.86 40.748 0.494 8.17 4.05 15.77
2/19/2021 1:00:00 PM 4.95 40.91 0.493 8.18 4.19 15.8
2/19/2021 1:15:00 PM 5.06 41.108 0.492 8.19 5.29 15.87
2/19/2021 1:30:00 PM 5.15 41.27 0.491 8.2 4.65 15.9
2/19/2021 1:45:00 PM 5.22 41.396 0.491 8.22 3.63 15.92
2/19/2021 2:00:00 PM 5.29 41.522 0.49 8.23 3.77 15.94
2/19/2021 2:15:00 PM 5.38 41.684 0.489 8.24 4.28 15.98
2/19/2021 2:30:00 PM 5.44 41.792 0.49 8.25 3.51 15.95
2/19/2021 2:45:00 PM 5.47 41.846 0.49 8.26 4.51 15.93
2/19/2021 3:00:00 PM 5.49 41.882 0.49 8.26 3.91 15.83
2/19/2021 3:15:00 PM 5.5 41.9 0.491 8.27 4.11 15.78
2/19/2021 3:30:00 PM 5.5 41.9 0.492 8.27 4.17 15.7
2/19/2021 3:45:00 PM 5.5 41.9 0.494 8.27 3.68 15.57
2/19/2021 4:00:00 PM 5.49 41.882 0.497 8.26 4.63 15.38
2/19/2021 4:15:00 PM 5.48 41.864 0.5 8.26 4.02 15.24
2/19/2021 4:30:00 PM 5.47 41.846 0.502 8.25 4.19 15.1
2/19/2021 4:45:00 PM 5.46 41.828 0.505 8.25 4.26 14.92
2/19/2021 5:00:00 PM 5.48 41.864 0.508 8.24 4.06 14.69
2/19/2021 5:15:00 PM 5.49 41.882 0.511 8.23 4.06 14.52
2/19/2021 5:30:00 PM 5.5 41.9 0.515 8.21 4 14.27
2/19/2021 5:45:00 PM 5.5 41.9 0.519 8.2 4.62 14.01
2/19/2021 6:00:00 PM 5.49 41.882 0.522 8.18 5.14 13.78
2/19/2021 6:15:00 PM 5.49 41.882 0.524 8.16 3.99 13.55
2/19/2021 6:30:00 PM 5.49 41.882 0.525 8.14 4.39 13.33
2/19/2021 6:45:00 PM 5.49 41.882 0.525 8.12 4.13 13.11
2/19/2021 7:00:00 PM 5.49 41.882 0.525 8.11 4.07 12.94
2/19/2021 7:15:00 PM 5.48 41.864 0.527 8.09 4 12.79
2/19/2021 7:30:00 PM 5.47 41.846 0.53 8.08 4.36 12.64
2/19/2021 7:45:00 PM 5.47 41.846 0.531 8.06 4.39 12.49
2/19/2021 8:00:00 PM 5.45 41.81 0.531 8.05 3.88 12.36
2/19/2021 8:15:00 PM 5.43 41.774 0.529 8.03 5.42 12.23
2/19/2021 8:30:00 PM 5.39 41.702 0.526 8.02 4.49 12.11
2/19/2021 8:45:00 PM 5.35 41.63 0.523 8.01 5.11 12.01
2/19/2021 9:00:00 PM 5.31 41.558 0.52 8 4.29 11.91
2/19/2021 9:15:00 PM 5.28 41.504 0.518 7.98 3.96 11.81
2/19/2021 9:30:00 PM 5.24 41.432 0.516 7.97 5.5 11.75
2/19/2021 9:45:00 PM 5.21 41.378 0.514 7.96 4.93 11.68
2/19/2021 10:00:00 PM 5.16 41.288 0.512 7.96 4.37 11.61
2/19/2021 10:15:00 PM 5.1 41.18 0.511 7.95 4.29 11.56
2/19/2021 10:30:00 PM 5.04 41.072 0.51 7.94 4.51 11.51
2/19/2021 10:45:00 PM 4.99 40.982 0.509 7.93 4.69 11.47
2/19/2021 11:00:00 PM 4.92 40.856 0.509 7.93 4.39 11.43
2/19/2021 11:15:00 PM 4.86 40.748 0.509 7.92 5.98 11.39
2/19/2021 11:30:00 PM 4.8 40.64 0.509 7.91 4.7 11.37
2/19/2021 11:45:00 PM 4.75 40.55 0.508 7.9 5.58 11.33
2/20/2021 12:00:00 AM 4.69 40.442 0.508 7.9 4.37 11.3
2/20/2021 12:15:00 AM 4.64 40.352 0.508 7.89 5.17 11.32
2/20/2021 12:30:00 AM 4.57 40.226 0.507 7.89 5.23 11.31
2/20/2021 12:45:00 AM 4.51 40.118 0.507 7.88 4.31 11.29
2/20/2021 1:00:00 AM 4.44 39.992 0.507 7.88 4.18 11.3
2/20/2021 1:15:00 AM 4.37 39.866 0.507 7.88 4.97 11.32
2/20/2021 1:30:00 AM 4.29 39.722 0.507 7.87 4.96 11.33
2/20/2021 1:45:00 AM 4.22 39.596 0.508 7.87 4.53 11.33
2/20/2021 2:00:00 AM 4.15 39.47 0.508 7.87 4.29 11.35
2/20/2021 2:15:00 AM 4.08 39.344 0.508 7.87 4.74 11.36
2/20/2021 2:30:00 AM 4.02 39.236 0.508 7.87 4.23 11.37
2/20/2021 2:45:00 AM 3.96 39.128 0.509 7.87 4.38 11.39
2/20/2021 3:00:00 AM 3.9 39.02 0.509 7.86 6.17 11.42
2/20/2021 3:15:00 AM 3.82 38.876 0.51 7.86 4.39 11.44
2/20/2021 3:30:00 AM 3.76 38.768 0.511 7.86 4.63 11.47
2/20/2021 3:45:00 AM 3.7 38.66 0.512 7.86 4.64 11.49
2/20/2021 4:00:00 AM 3.67 38.606 0.512 7.86 4.63 11.5
2/20/2021 4:15:00 AM 3.59 38.462 0.513 7.86 4.52 11.54
2/20/2021 4:30:00 AM 3.51 38.318 0.513 7.86 5.14 11.54
2/20/2021 4:45:00 AM 3.41 38.138 0.514 7.86 4.98 11.59
2/20/2021 5:00:00 AM 3.31 37.958 0.515 7.86 4.54 11.62
2/20/2021 5:15:00 AM 3.23 37.814 0.516 7.86 4.52 11.66
2/20/2021 5:30:00 AM 3.15 37.67 0.518 7.86 5.04 11.7
2/20/2021 5:45:00 AM 3.07 37.526 0.518 7.86 4.77 11.73
2/20/2021 6:00:00 AM 2.99 37.382 0.519 7.86 4.84 11.77
2/20/2021 6:15:00 AM 2.93 37.274 0.521 7.86 8.58 11.81
2/20/2021 6:30:00 AM 2.86 37.148 0.522 7.86 5.87 11.85
2/20/2021 6:45:00 AM 2.8 37.04 0.523 7.86 4.64 11.88
2/20/2021 7:00:00 AM 2.75 36.95 0.523 7.86 4.73 11.93
2/20/2021 7:15:00 AM 2.71 36.878 0.524 7.86 4.03 12.01
2/20/2021 7:30:00 AM 2.68 36.824 0.525 7.87 4.47 12.12
2/20/2021 7:45:00 AM 2.65 36.77 0.525 7.88 4.61 12.25
2/20/2021 8:00:00 AM 2.62 36.716 0.525 7.88 4.07 12.46
2/20/2021 8:15:00 AM 2.6 36.68 0.525 7.9 4.05 12.71
2/20/2021 8:30:00 AM 2.58 36.644 0.525 7.92 4.45 12.99
2/20/2021 8:45:00 AM 2.57 36.626 0.525 7.93 4.28 13.27
2/20/2021 9:00:00 AM 2.57 36.626 0.525 7.95 3.88 13.55
2/20/2021 9:15:00 AM 2.57 36.626 0.525 7.97 5.18 13.81
2/20/2021 9:30:00 AM 2.55 36.59 0.525 7.98 4.59 14.02
2/20/2021 9:45:00 AM 2.51 36.518 0.525 8 3.87 14.18
2/20/2021 10:00:00 AM 2.52 36.536 0.524 8.02 3.72 14.4
2/20/2021 10:15:00 AM 2.53 36.554 0.524 8.03 3.65 14.6
2/20/2021 10:30:00 AM 2.53 36.554 0.524 8.05 3.9 14.77
2/20/2021 10:45:00 AM 2.62 36.716 0.524 8.06 3.87 14.97
2/20/2021 11:00:00 AM 2.72 36.896 0.523 8.08 3.99 15.2
2/20/2021 11:15:00 AM 2.87 37.166 0.523 8.1 3.97 15.41
2/20/2021 11:30:00 AM 3.04 37.472 0.522 8.11 4.03 15.59
2/20/2021 11:45:00 AM 3.23 37.814 0.522 8.13 3.8 15.75
2/20/2021 12:00:00 PM 3.42 38.156 0.521 8.14 4.11 15.88
2/20/2021 12:15:00 PM 3.58 38.444 0.521 8.16 3.67 15.97
2/20/2021 12:30:00 PM 3.75 38.75 0.521 8.17 4.24 16.06
2/20/2021 12:45:00 PM 3.94 39.092 0.52 8.19 3.54 16.14
2/20/2021 1:00:00 PM 4.07 39.326 0.52 8.2 3.47 16.18
2/20/2021 1:15:00 PM 4.23 39.614 0.519 8.21 3.45 16.21
2/20/2021 1:30:00 PM 4.31 39.758 0.519 8.23 3.83 16.24
2/20/2021 1:45:00 PM 4.34 39.812 0.519 8.24 3.82 16.23
2/20/2021 2:00:00 PM 4.37 39.866 0.518 8.25 3.68 16.23
2/20/2021 2:15:00 PM 4.38 39.884 0.518 8.26 4.63 16.24
2/20/2021 2:30:00 PM 4.36 39.848 0.517 8.27 3.49 16.23
2/20/2021 2:45:00 PM 4.34 39.812 0.516 8.28 8.03 16.21
2/20/2021 3:00:00 PM 4.36 39.848 0.515 8.29 3.54 16.22
2/20/2021 3:15:00 PM 4.4 39.92 0.514 8.3 4.82 16.25
2/20/2021 3:30:00 PM 4.42 39.956 0.512 8.31 3.55 16.24
2/20/2021 3:45:00 PM 4.41 39.938 0.511 8.31 3.71 16.2
2/20/2021 4:00:00 PM 4.42 39.956 0.508 8.32 3.32 16.24
2/20/2021 4:15:00 PM 4.43 39.974 0.506 8.33 3.35 16.18
2/20/2021 4:30:00 PM 4.4 39.92 0.504 8.33 4.49 16.08
2/20/2021 4:45:00 PM 4.35 39.83 0.502 8.33 3.78 15.94
2/20/2021 5:00:00 PM 4.28 39.704 0.501 8.32 3.47 15.76
2/20/2021 5:15:00 PM 4.22 39.596 0.5 8.31 3.5 15.57
2/20/2021 5:30:00 PM 4.2 39.56 0.499 8.3 3.6 15.36
2/20/2021 5:45:00 PM 4.15 39.47 0.499 8.29 3.56 15.13
2/20/2021 6:00:00 PM 4.1 39.38 0.499 8.27 3.65 14.88
2/20/2021 6:15:00 PM 4.03 39.254 0.499 8.25 3.19 14.64
2/20/2021 6:30:00 PM 3.95 39.11 0.499 8.23 3.83 14.43
2/20/2021 6:45:00 PM 3.88 38.984 0.5 8.22 4.06 14.22
2/20/2021 7:00:00 PM 3.8 38.84 0.501 8.2 3.61 14.03
2/20/2021 7:15:00 PM 3.75 38.75 0.501 8.18 3.64 13.85
2/20/2021 7:30:00 PM 3.71 38.678 0.502 8.16 3.95 13.69
2/20/2021 7:45:00 PM 3.65 38.57 0.502 8.15 3.43 13.54
2/20/2021 8:00:00 PM 3.61 38.498 0.503 8.13 3.54 13.4
2/20/2021 8:15:00 PM 3.57 38.426 0.503 8.12 3.91 13.28
2/20/2021 8:30:00 PM 3.53 38.354 0.503 8.1 3.89 13.18
2/20/2021 8:45:00 PM 3.47 38.246 0.504 8.09 3.77 13.08
2/20/2021 9:00:00 PM 3.42 38.156 0.505 8.08 3.89 12.99
2/20/2021 9:15:00 PM 3.39 38.102 0.506 8.07 3.99 12.91
2/20/2021 9:30:00 PM 3.35 38.03 0.506 8.05 3.56 12.82
2/20/2021 9:45:00 PM 3.31 37.958 0.506 8.04 3.43 12.75
2/20/2021 10:00:00 PM 3.26 37.868 0.506 8.04 3.51 12.69
2/20/2021 10:15:00 PM 3.21 37.778 0.506 8.03 3.74 12.63
2/20/2021 10:30:00 PM 3.14 37.652 0.506 8.02 3.65 12.58
2/20/2021 10:45:00 PM 3.1 37.58 0.505 8.01 4.67 12.53
2/20/2021 11:00:00 PM 3.07 37.526 0.505 8 4.36 12.47
2/20/2021 11:15:00 PM 3.03 37.454 0.504 7.99 3.6 12.42
2/20/2021 11:30:00 PM 2.98 37.364 0.504 7.98 4.93 12.41
2/20/2021 11:45:00 PM 2.93 37.274 0.504 7.97 3.33 12.35
2/21/2021 12:00:00 AM 2.87 37.166 0.504 7.96 3.9 12.33
2/21/2021 12:15:00 AM 2.83 37.094 0.503 7.95 3.37 12.33
2/21/2021 12:30:00 AM 2.76 36.968 0.504 7.95 3.23 12.31
2/21/2021 12:45:00 AM 2.7 36.86 0.504 7.94 4.2 12.31
2/21/2021 1:00:00 AM 2.64 36.752 0.504 7.94 3.47 12.3
2/21/2021 1:15:00 AM 2.58 36.644 0.505 7.93 3.8 12.29
2/21/2021 1:30:00 AM 2.5 36.5 0.505 7.93 3.93 12.3
2/21/2021 1:45:00 AM 2.43 36.374 0.506 7.92 3.57 12.31
2/21/2021 2:00:00 AM 2.37 36.266 0.507 7.92 3.85 12.33
2/21/2021 2:15:00 AM 2.31 36.158 0.507 7.92 3.6 12.34
2/21/2021 2:30:00 AM 2.25 36.05 0.508 7.92 3.98 12.36
2/21/2021 2:45:00 AM 2.18 35.924 0.508 7.91 3.66 12.37
2/21/2021 3:00:00 AM 2.12 35.816 0.509 7.91 4.09 12.38
2/21/2021 3:15:00 AM 2.06 35.708 0.51 7.91 3.91 12.41
2/21/2021 3:30:00 AM 2 35.6 0.511 7.91 4.23 12.4
2/21/2021 3:45:00 AM 1.94 35.492 0.511 7.91 4.38 12.43
2/21/2021 4:00:00 AM 1.87 35.366 0.512 7.91 4.16 12.47
2/21/2021 4:15:00 AM 1.81 35.258 0.513 7.91 3.93 12.48
2/21/2021 4:30:00 AM 1.75 35.15 0.514 7.9 3.91 12.51
2/21/2021 4:45:00 AM 1.7 35.06 0.515 7.9 5.75 12.52
2/21/2021 5:00:00 AM 1.63 34.934 0.517 7.9 4.4 12.57
2/21/2021 5:15:00 AM 1.58 34.844 0.518 7.9 5.7 12.58
2/21/2021 5:30:00 AM 1.51 34.718 0.519 7.9 6.28 12.61
2/21/2021 5:45:00 AM 1.47 34.646 0.521 7.91 4.72 12.62
2/21/2021 6:00:00 AM 1.41 34.538 0.522 7.91 4.46 12.65
2/21/2021 6:15:00 AM 1.37 34.466 0.523 7.91 4.74 12.67
2/21/2021 6:30:00 AM 1.32 34.376 0.525 7.91 4.47 12.7
2/21/2021 6:45:00 AM 1.27 34.286 0.526 7.91 4.83 12.75
2/21/2021 7:00:00 AM 1.22 34.196 0.527 7.91 4.57 12.79
2/21/2021 7:15:00 AM 1.17 34.106 0.529 7.91 9.63 12.84
2/21/2021 7:30:00 AM 1.12 34.016 0.53 7.92 4.02 12.97
2/21/2021 7:45:00 AM 1.07 33.926 0.531 7.93 4.08 13.12
2/21/2021 8:00:00 AM 1.04 33.872 0.531 7.94 3.97 13.29
2/21/2021 8:15:00 AM 1.04 33.872 0.532 7.95 4.42 13.55
2/21/2021 8:30:00 AM 1.06 33.908 0.533 7.96 3.55 13.78
2/21/2021 8:45:00 AM 1.09 33.962 0.533 7.97 4.66 14.02
2/21/2021 9:00:00 AM 1.14 34.052 0.533 7.98 3.45 14.24
2/21/2021 9:15:00 AM 1.22 34.196 0.533 8 3.55 14.46
2/21/2021 9:30:00 AM 1.32 34.376 0.532 8.01 3.44 14.67
2/21/2021 9:45:00 AM 1.43 34.574 0.532 8.02 3.59 14.88
2/21/2021 10:00:00 AM 1.58 34.844 0.531 8.03 3.81 15.07
2/21/2021 10:15:00 AM 1.75 35.15 0.53 8.04 3.5 15.26
2/21/2021 10:30:00 AM 1.93 35.474 0.53 8.06 3.63 15.44
2/21/2021 10:45:00 AM 2.13 35.834 0.529 8.07 3.72 15.63
2/21/2021 11:00:00 AM 2.33 36.194 0.528 8.08 3.85 15.79
2/21/2021 11:15:00 AM 2.54 36.572 0.526 8.1 3.33 15.91
2/21/2021 11:30:00 AM 2.75 36.95 0.525 8.11 3.37 16.07
2/21/2021 11:45:00 AM 2.99 37.382 0.524 8.12 3.69 16.17
2/21/2021 12:00:00 PM 3.23 37.814 0.523 8.14 3.15 16.25
2/21/2021 12:15:00 PM 3.47 38.246 0.522 8.15 4.49 16.31
2/21/2021 12:30:00 PM 3.69 38.642 0.521 8.16 3.33 16.33
2/21/2021 12:45:00 PM 3.9 39.02 0.521 8.16 3.61 16.35
2/21/2021 1:00:00 PM 4.11 39.398 0.52 8.17 3.69 16.36
2/21/2021 1:15:00 PM 4.28 39.704 0.519 8.18 3.46 16.35
2/21/2021 1:30:00 PM 4.45 40.01 0.517 8.19 3.35 16.36
2/21/2021 1:45:00 PM 4.61 40.298 0.516 8.2 4.01 16.36
2/21/2021 2:00:00 PM 4.76 40.568 0.515 8.21 3.93 16.36
2/21/2021 2:15:00 PM 4.88 40.784 0.514 8.22 4.17 16.33
2/21/2021 2:30:00 PM 4.99 40.982 0.513 8.24 3.49 16.31
2/21/2021 2:45:00 PM 5.1 41.18 0.512 8.25 5.5 16.24
2/21/2021 3:00:00 PM 5.2 41.36 0.51 8.25 3.93 16.22
2/21/2021 3:15:00 PM 5.28 41.504 0.509 8.26 5.03 16.19
2/21/2021 3:30:00 PM 5.35 41.63 0.507 8.27 5.46 16.15
2/21/2021 3:45:00 PM 5.4 41.72 0.505 8.27 4.78 16.05
2/21/2021 4:00:00 PM 5.43 41.774 0.503 8.28 4.21 15.98
2/21/2021 4:15:00 PM 5.44 41.792 0.501 8.28 4.56 15.85
2/21/2021 4:30:00 PM 5.44 41.792 0.499 8.27 3.6 15.72
2/21/2021 4:45:00 PM 5.43 41.774 0.496 8.27 3.98 15.57
2/21/2021 5:00:00 PM 5.41 41.738 0.494 8.27 3.68 15.41
2/21/2021 5:15:00 PM 5.36 41.648 0.492 8.26 3.84 15.21
2/21/2021 5:30:00 PM 5.31 41.558 0.49 8.25 5.05 14.97
2/21/2021 5:45:00 PM 5.25 41.45 0.488 8.23 3.8 14.72
2/21/2021 6:00:00 PM 5.18 41.324 0.487 8.21 4.04 14.44
2/21/2021 6:15:00 PM 5.13 41.234 0.487 8.19 5.26 14.19
2/21/2021 6:30:00 PM 5.06 41.108 0.487 8.18 3.61 13.97
2/21/2021 6:45:00 PM 5.01 41.018 0.487 8.16 3.9 13.77
2/21/2021 7:00:00 PM 4.96 40.928 0.487 8.14 3.86 13.55
2/21/2021 7:15:00 PM 4.93 40.874 0.488 8.12 3.9 13.36
2/21/2021 7:30:00 PM 4.9 40.82 0.489 8.1 5.76 13.18
2/21/2021 7:45:00 PM 4.86 40.748 0.49 8.09 3.86 13
2/21/2021 8:00:00 PM 4.85 40.73 0.491 8.07 3.98 12.86
2/21/2021 8:15:00 PM 4.84 40.712 0.491 8.06 3.51 12.73
2/21/2021 8:30:00 PM 4.83 40.694 0.492 8.05 3.99 12.6
2/21/2021 8:45:00 PM 4.82 40.676 0.492 8.03 3.98 12.48
2/21/2021 9:00:00 PM 4.81 40.658 0.493 8.02 4.03 12.37
2/21/2021 9:15:00 PM 4.8 40.64 0.493 8.01 3.84 12.25
2/21/2021 9:30:00 PM 4.8 40.64 0.493 8 4.13 12.17
2/21/2021 9:45:00 PM 4.78 40.604 0.494 7.99 4.68 12.07
2/21/2021 10:00:00 PM 4.77 40.586 0.494 7.98 4.16 12.02
2/21/2021 10:15:00 PM 4.75 40.55 0.494 7.97 4.16 11.95
2/21/2021 10:30:00 PM 4.75 40.55 0.494 7.97 4.5 11.88
2/21/2021 10:45:00 PM 4.73 40.514 0.494 7.96 4.63 11.81
2/21/2021 11:00:00 PM 4.71 40.478 0.494 7.95 4.93 11.76
2/21/2021 11:15:00 PM 4.68 40.424 0.494 7.94 4.46 11.68
2/21/2021 11:30:00 PM 4.66 40.388 0.494 7.93 4.43 11.62
2/21/2021 11:45:00 PM 4.63 40.334 0.494 7.93 5.38 11.58
2/22/2021 12:00:00 AM 4.6 40.28 0.494 7.92 4.68 11.55
2/22/2021 12:15:00 AM 4.56 40.208 0.494 7.91 4.56 11.52
2/22/2021 12:30:00 AM 4.53 40.154 0.494 7.91 4.79 11.48
2/22/2021 12:45:00 AM 4.48 40.064 0.494 7.9 5.54 11.46
2/22/2021 1:00:00 AM 4.43 39.974 0.494 7.9 5.44 11.45
2/22/2021 1:15:00 AM 4.39 39.902 0.495 7.89 4.61 11.45
2/22/2021 1:30:00 AM 4.34 39.812 0.495 7.89 4.35 11.44
2/22/2021 1:45:00 AM 4.28 39.704 0.496 7.89 4.48 11.42
2/22/2021 2:00:00 AM 4.24 39.632 0.496 7.89 5.4 11.41
2/22/2021 2:15:00 AM 4.22 39.596 0.497 7.88 4.1 11.39
2/22/2021 2:30:00 AM 4.16 39.488 0.497 7.88 4.49 11.38
2/22/2021 2:45:00 AM 4.1 39.38 0.498 7.88 4.31 11.39
2/22/2021 3:00:00 AM 4.07 39.326 0.498 7.88 4.45 11.37
2/22/2021 3:15:00 AM 4.06 39.308 0.499 7.88 4.52 11.36
2/22/2021 3:30:00 AM 4.03 39.254 0.499 7.87 4.18 11.35
2/22/2021 3:45:00 AM 4 39.2 0.5 7.88 4.79 11.35
2/22/2021 4:00:00 AM 4 39.2 0.5 7.87 4.78 11.34
2/22/2021 4:15:00 AM 4 39.2 0.501 7.87 4.03 11.32
2/22/2021 4:30:00 AM 4 39.2 0.502 7.87 6.05 11.34
2/22/2021 4:45:00 AM 4 39.2 0.502 7.87 5.03 11.34
2/22/2021 5:00:00 AM 4 39.2 0.503 7.87 4.38 11.36
2/22/2021 5:15:00 AM 4 39.2 0.503 7.86 4.23 11.34
2/22/2021 5:30:00 AM 4 39.2 0.504 7.86 4.27 11.34
2/22/2021 5:45:00 AM 4.01 39.218 0.504 7.86 4.6 11.35
2/22/2021 6:00:00 AM 4.01 39.218 0.505 7.86 4.37 11.35
2/22/2021 6:15:00 AM 4.01 39.218 0.505 7.86 5.76 11.34
2/22/2021 6:30:00 AM 4.02 39.236 0.506 7.86 4.69 11.34
2/22/2021 6:45:00 AM 4.03 39.254 0.506 7.86 3.93 11.35
2/22/2021 7:00:00 AM 3.99 39.182 0.507 7.85 4.5 11.36
2/22/2021 7:15:00 AM 3.86 38.948 0.507 7.86 4.68 11.37
2/22/2021 7:30:00 AM 3.75 38.75 0.507 7.86 4.47 11.43
2/22/2021 7:45:00 AM 3.61 38.498 0.508 7.87 5.67 11.5
2/22/2021 8:00:00 AM 3.39 38.102 0.508 7.87 4.35 11.58
2/22/2021 8:15:00 AM 3.19 37.742 0.508 7.88 4.3 11.72
2/22/2021 8:30:00 AM 3.04 37.472 0.508 7.89 3.99 11.89
2/22/2021 8:45:00 AM 2.89 37.202 0.509 7.9 4.37 12.07
2/22/2021 9:00:00 AM 2.76 36.968 0.509 7.92 4.08 12.3
2/22/2021 9:15:00 AM 2.64 36.752 0.509 7.93 5.19 12.54
2/22/2021 9:30:00 AM 2.59 36.662 0.508 7.94 3.9 12.76
2/22/2021 9:45:00 AM 2.53 36.554 0.508 7.96 3.83 13
2/22/2021 10:00:00 AM 2.49 36.482 0.508 7.98 3.66 13.24
2/22/2021 10:15:00 AM 2.46 36.428 0.507 7.99 4.18 13.41
2/22/2021 10:30:00 AM 2.42 36.356 0.506 8.01 3.57 13.62
2/22/2021 10:45:00 AM 2.35 36.23 0.506 8.02 3.75 13.82
2/22/2021 11:00:00 AM 2.29 36.122 0.505 8.04 3.66 14.01
2/22/2021 11:15:00 AM 2.28 36.104 0.504 8.05 3.72 14.19
2/22/2021 11:30:00 AM 2.31 36.158 0.505 8.07 3.76 14.34
2/22/2021 11:45:00 AM 2.37 36.266 0.505 8.08 3.52 14.48
2/22/2021 12:00:00 PM 2.46 36.428 0.505 8.09 3.74 14.64
2/22/2021 12:15:00 PM 2.54 36.572 0.505 8.1 4.12 14.75
2/22/2021 12:30:00 PM 2.62 36.716 0.504 8.11 3.76 14.86
2/22/2021 12:45:00 PM 2.69 36.842 0.504 8.12 3.76 14.94
2/22/2021 1:00:00 PM 2.74 36.932 0.503 8.13 3.56 15.06
2/22/2021 1:15:00 PM 2.79 37.022 0.502 8.14 3.22 15.15
2/22/2021 1:30:00 PM 2.81 37.058 0.501 8.15 3.56 15.28
2/22/2021 1:45:00 PM 2.83 37.094 0.5 8.16 3.47 15.4
2/22/2021 2:00:00 PM 2.88 37.184 0.499 8.17 3.42 15.53
2/22/2021 2:15:00 PM 2.94 37.292 0.499 8.18 3.5 15.65
2/22/2021 2:30:00 PM 3 37.4 0.498 8.2 3.64 15.75
2/22/2021 2:45:00 PM 3.06 37.508 0.497 8.21 3.7 15.82
2/22/2021 3:00:00 PM 3.12 37.616 0.5 8.22 4.72 15.92
2/22/2021 3:15:00 PM 3.2 37.76 0.496 8.23 3.5 15.99
2/22/2021 3:30:00 PM 3.27 37.886 0.495 8.24 3.97 16.03
2/22/2021 3:45:00 PM 3.36 38.048 0.495 8.25 3.8 16.09
2/22/2021 4:00:00 PM 3.42 38.156 0.494 8.25 3.54 16.06
2/22/2021 4:15:00 PM 3.47 38.246 0.494 8.26 3.92 15.98
2/22/2021 4:30:00 PM 3.51 38.318 0.493 8.26 4.25 15.93
2/22/2021 4:45:00 PM 3.53 38.354 0.493 8.26 3.66 15.86
2/22/2021 5:00:00 PM 3.56 38.408 0.494 8.25 3.84 15.62
2/22/2021 5:15:00 PM 3.56 38.408 0.494 8.24 3.49 15.39
2/22/2021 5:30:00 PM 3.58 38.444 0.494 8.23 3.98 15.13
2/22/2021 5:45:00 PM 3.6 38.48 0.494 8.22 3.65 14.86
2/22/2021 6:00:00 PM 3.62 38.516 0.494 8.19 3.82 14.59
2/22/2021 6:15:00 PM 3.64 38.552 0.494 8.18 3.75 14.33
2/22/2021 6:30:00 PM 3.67 38.606 0.494 8.16 4.1 14.09
2/22/2021 6:45:00 PM 3.7 38.66 0.493 8.15 3.41 13.88
2/22/2021 7:00:00 PM 3.74 38.732 0.493 8.13 3.63 13.69
2/22/2021 7:15:00 PM 3.76 38.768 0.493 8.11 3.88 13.52
2/22/2021 7:30:00 PM 3.77 38.786 0.493 8.1 3.69 13.38
2/22/2021 7:45:00 PM 3.8 38.84 0.493 8.09 3.43 13.23
2/22/2021 8:00:00 PM 3.81 38.858 0.493 8.08 3.67 13.07
2/22/2021 8:15:00 PM 3.83 38.894 0.493 8.07 3.69 12.94
2/22/2021 8:30:00 PM 3.84 38.912 0.493 8.06 3.96 12.81
2/22/2021 8:45:00 PM 3.85 38.93 0.493 8.04 3.56 12.71
2/22/2021 9:00:00 PM 3.86 38.948 0.493 8.04 3.52 12.61
2/22/2021 9:15:00 PM 3.88 38.984 0.493 8.03 3.57 12.51
2/22/2021 9:30:00 PM 3.89 39.002 0.493 8.02 3.7 12.44
2/22/2021 9:45:00 PM 3.9 39.02 0.493 8.01 3.79 12.37
2/22/2021 10:00:00 PM 3.9 39.02 0.493 8 3.7 12.3
2/22/2021 10:15:00 PM 3.89 39.002 0.493 7.99 3.84 12.22
2/22/2021 10:30:00 PM 3.89 39.002 0.493 7.99 3.79 12.14
2/22/2021 10:45:00 PM 3.88 38.984 0.493 7.98 3.77 12.06
2/22/2021 11:00:00 PM 3.88 38.984 0.494 7.97 3.48 11.99
2/22/2021 11:15:00 PM 3.89 39.002 0.494 7.96 3.93 11.93
2/22/2021 11:30:00 PM 3.9 39.02 0.495 7.95 3.83 11.84
2/22/2021 11:45:00 PM 3.9 39.02 0.497 7.94 4.09 11.78
2/23/2021 12:00:00 AM 3.9 39.02 0.498 7.93 3.81 11.72
2/23/2021 12:15:00 AM 3.89 39.002 0.499 7.93 4.41 11.66
2/23/2021 12:30:00 AM 3.87 38.966 0.5 7.92 4.37 11.62
2/23/2021 12:45:00 AM 3.84 38.912 0.501 7.91 4.25 11.58
2/23/2021 1:00:00 AM 3.82 38.876 0.502 7.91 4.12 11.55
2/23/2021 1:15:00 AM 3.79 38.822 0.503 7.9 3.92 11.52
2/23/2021 1:30:00 AM 3.77 38.786 0.503 7.9 3.94 11.5
2/23/2021 1:45:00 AM 3.75 38.75 0.503 7.9 3.91 11.48
2/23/2021 2:00:00 AM 3.74 38.732 0.503 7.9 3.83 11.46
2/23/2021 2:15:00 AM 3.71 38.678 0.503 7.89 4.19 11.46
2/23/2021 2:30:00 AM 3.68 38.624 0.503 7.89 3.84 11.44
2/23/2021 2:45:00 AM 3.64 38.552 0.502 7.89 3.76 11.45
2/23/2021 3:00:00 AM 3.61 38.498 0.502 7.89 3.87 11.46
2/23/2021 3:15:00 AM 3.57 38.426 0.502 7.89 3.71 11.44
2/23/2021 3:30:00 AM 3.54 38.372 0.502 7.88 3.83 11.45
2/23/2021 3:45:00 AM 3.5 38.3 0.503 7.88 3.9 11.47
2/23/2021 4:00:00 AM 3.46 38.228 0.503 7.88 3.85 11.45
2/23/2021 4:15:00 AM 3.42 38.156 0.503 7.88 3.96 11.47
2/23/2021 4:30:00 AM 3.38 38.084 0.504 7.88 3.81 11.49
2/23/2021 4:45:00 AM 3.34 38.012 0.504 7.88 3.99 11.49
2/23/2021 5:00:00 AM 3.3 37.94 0.505 7.87 3.49 11.5
2/23/2021 5:15:00 AM 3.26 37.868 0.505 7.87 4.04 11.52
2/23/2021 5:30:00 AM 3.22 37.796 0.506 7.87 4.84 11.54
2/23/2021 5:45:00 AM 3.17 37.706 0.507 7.87 3.82 11.55
2/23/2021 6:00:00 AM 3.13 37.634 0.507 7.87 4.37 11.56
2/23/2021 6:15:00 AM 3.1 37.58 0.508 7.87 4.22 11.56
2/23/2021 6:30:00 AM 3.05 37.49 0.508 7.87 4.52 11.58
2/23/2021 6:45:00 AM 3.03 37.454 0.508 7.87 4.49 11.58
2/23/2021 7:00:00 AM 3.01 37.418 0.509 7.87 4.23 11.62
2/23/2021 7:15:00 AM 2.99 37.382 0.509 7.87 7.06 11.68
2/23/2021 7:30:00 AM 2.99 37.382 0.509 7.88 3.97 11.78
2/23/2021 7:45:00 AM 2.98 37.364 0.509 7.88 3.51 11.92
2/23/2021 8:00:00 AM 3 37.4 0.509 7.89 3.58 12.15
2/23/2021 8:15:00 AM 3.04 37.472 0.509 7.91 3.63 12.41
2/23/2021 8:30:00 AM 3.09 37.562 0.509 7.92 3.54 12.63
2/23/2021 8:45:00 AM 3.15 37.67 0.508 7.94 3.32 12.89
2/23/2021 9:00:00 AM 3.2 37.76 0.508 7.96 3.34 13.1
2/23/2021 9:15:00 AM 3.28 37.904 0.508 7.97 3.51 13.37
2/23/2021 9:30:00 AM 3.35 38.03 0.508 7.99 3.48 13.55
2/23/2021 9:45:00 AM 3.42 38.156 0.508 8 3.53 13.74
2/23/2021 10:00:00 AM 3.48 38.264 0.508 8.02 3.59 13.9
2/23/2021 10:15:00 AM 3.54 38.372 0.508 8.03 3.31 14.07
2/23/2021 10:30:00 AM 3.6 38.48 0.508 8.05 3.6 14.2
2/23/2021 10:45:00 AM 3.67 38.606 0.508 8.06 3.27 14.33
2/23/2021 11:00:00 AM 3.74 38.732 0.507 8.08 3.24 14.5
2/23/2021 11:15:00 AM 3.83 38.894 0.507 8.09 3.22 14.69
2/23/2021 11:30:00 AM 3.91 39.038 0.507 8.11 3.18 14.84
2/23/2021 11:45:00 AM 4.02 39.236 0.506 8.12 5.48 15.04
2/23/2021 12:00:00 PM 4.14 39.452 0.506 8.14 4.09 15.23
2/23/2021 12:15:00 PM 4.28 39.704 0.506 8.16 3.12 15.42
2/23/2021 12:30:00 PM 4.42 39.956 0.505 8.17 3.62 15.59
2/23/2021 12:45:00 PM 4.58 40.244 0.505 8.19 3.72 15.7
2/23/2021 1:00:00 PM 4.72 40.496 0.505 8.2 3.53 15.76
2/23/2021 1:15:00 PM 4.89 40.802 0.505 8.21 3.42 15.88
2/23/2021 1:30:00 PM 4.99 40.982 0.504 8.23 3.5 15.91
2/23/2021 1:45:00 PM 5.09 41.162 0.504 8.24 3.78 15.92
2/23/2021 2:00:00 PM 5.14 41.252 0.504 8.25 5.29 15.83
2/23/2021 2:15:00 PM 5.21 41.378 0.504 8.26 3.63 15.85
2/23/2021 2:30:00 PM 5.26 41.468 0.504 8.27 3.77 15.81
2/23/2021 2:45:00 PM 5.28 41.504 0.503 8.27 4.42 15.72
2/23/2021 3:00:00 PM 5.32 41.576 0.505 8.27 3.79 15.62
2/23/2021 3:15:00 PM 5.34 41.612 0.504 8.28 4.81 15.5
2/23/2021 3:30:00 PM 5.37 41.666 0.504 8.28 5.5 15.39
2/23/2021 3:45:00 PM 5.4 41.72 0.503 8.28 4.36 15.31
2/23/2021 4:00:00 PM 5.44 41.792 0.502 8.28 4.6 15.23
2/23/2021 4:15:00 PM 5.46 41.828 0.501 8.28 4.67 15.15
2/23/2021 4:30:00 PM 5.49 41.882 0.5 8.28 4.79 15.07
2/23/2021 4:45:00 PM 5.51 41.918 0.5 8.27 5.29 14.89
2/23/2021 5:00:00 PM 5.52 41.936 0.5 8.26 5.06 14.72
2/23/2021 5:15:00 PM 5.53 41.954 0.499 8.25 4.85 14.54
2/23/2021 5:30:00 PM 5.53 41.954 0.498 8.24 4.46 14.29
2/23/2021 5:45:00 PM 5.54 41.972 0.497 8.22 5.15 14.01
2/23/2021 6:00:00 PM 5.53 41.954 0.496 8.2 5.62 13.74
2/23/2021 6:15:00 PM 5.53 41.954 0.496 8.18 6.1 13.47
2/23/2021 6:30:00 PM 5.54 41.972 0.497 8.15 6.64 13.24
2/23/2021 6:45:00 PM 5.54 41.972 0.498 8.14 7.6 13.02
2/23/2021 7:00:00 PM 5.54 41.972 0.5 8.12 9.4 12.82
2/23/2021 7:15:00 PM 5.54 41.972 0.502 8.1 8.06 12.66
2/23/2021 7:30:00 PM 5.53 41.954 0.505 8.08 8.69 12.48
2/23/2021 7:45:00 PM 5.52 41.936 0.509 8.06 8.91 12.32
2/23/2021 8:00:00 PM 5.5 41.9 0.512 8.05 9.55 12.18
2/23/2021 8:15:00 PM 5.48 41.864 0.515 8.04 9.4 12.02
2/23/2021 8:30:00 PM 5.46 41.828 0.517 8.02 9.92 11.9
2/23/2021 8:45:00 PM 5.44 41.792 0.518 8.01 11.04 11.79
2/23/2021 9:00:00 PM 5.42 41.756 0.518 8 11.42 11.7
2/23/2021 9:15:00 PM 5.4 41.72 0.518 7.99 10.17 11.61
2/23/2021 9:30:00 PM 5.39 41.702 0.518 7.98 9.88 11.54
2/23/2021 9:45:00 PM 5.37 41.666 0.517 7.97 9.26 11.47
2/23/2021 10:00:00 PM 5.35 41.63 0.516 7.96 9.65 11.44
2/23/2021 10:15:00 PM 5.32 41.576 0.515 7.96 8.8 11.38
2/23/2021 10:30:00 PM 5.29 41.522 0.514 7.95 9.35 11.33
2/23/2021 10:45:00 PM 5.26 41.468 0.512 7.94 9.77 11.28
2/23/2021 11:00:00 PM 5.23 41.414 0.511 7.94 9.79 11.24
2/23/2021 11:15:00 PM 5.2 41.36 0.509 7.93 9.37 11.2
2/23/2021 11:30:00 PM 5.16 41.288 0.508 7.92 9.99 11.16
2/23/2021 11:45:00 PM 5.12 41.216 0.507 7.91 9.89 11.14
2/24/2021 12:00:00 AM 5.08 41.144 0.506 7.91 9.5 11.1
2/24/2021 12:15:00 AM 5.04 41.072 0.505 7.91 10.05 11.07
2/24/2021 12:30:00 AM 5 41 0.504 7.9 9.18 11.06
2/24/2021 12:45:00 AM 4.96 40.928 0.503 7.9 9.16 11.04
2/24/2021 1:00:00 AM 4.91 40.838 0.502 7.89 9.39 11.01
2/24/2021 1:15:00 AM 4.86 40.748 0.502 7.89 9.14 11.02
2/24/2021 1:30:00 AM 4.81 40.658 0.501 7.89 9.41 11.01
2/24/2021 1:45:00 AM 4.77 40.586 0.5 7.88 8.56 11.02
2/24/2021 2:00:00 AM 4.72 40.496 0.499 7.88 9.88 11.05
2/24/2021 2:15:00 AM 4.66 40.388 0.498 7.88 8.67 11.05
2/24/2021 2:30:00 AM 4.61 40.298 0.498 7.87 8.49 11.06
2/24/2021 2:45:00 AM 4.55 40.19 0.498 7.87 8.92 11.1
2/24/2021 3:00:00 AM 4.49 40.082 0.498 7.87 9.08 11.1
2/24/2021 3:15:00 AM 4.43 39.974 0.498 7.86 9.2 11.11
2/24/2021 3:30:00 AM 4.38 39.884 0.498 7.86 10.35 11.14
2/24/2021 3:45:00 AM 4.33 39.794 0.498 7.86 9.38 11.16
2/24/2021 4:00:00 AM 4.28 39.704 0.499 7.85 10.03 11.18
2/24/2021 4:15:00 AM 4.22 39.596 0.5 7.85 10.37 11.2
2/24/2021 4:30:00 AM 4.15 39.47 0.5 7.85 11.44 11.22
2/24/2021 4:45:00 AM 4.1 39.38 0.502 7.84 12.3 11.23
2/24/2021 5:00:00 AM 4.03 39.254 0.502 7.84 13.67 11.24
2/24/2021 5:15:00 AM 3.98 39.164 0.504 7.84 17.33 11.26
2/24/2021 5:30:00 AM 3.93 39.074 0.504 7.84 19.75 11.24
2/24/2021 5:45:00 AM 3.88 38.984 0.505 7.83 20.3 11.25
2/24/2021 6:00:00 AM 3.83 38.894 0.506 7.83 21.69 11.26
2/24/2021 6:15:00 AM 3.77 38.786 0.506 7.83 22.65 11.27
2/24/2021 6:30:00 AM 3.72 38.696 0.506 7.83 24.87 11.29
2/24/2021 6:45:00 AM 3.66 38.588 0.506 7.82 24.81 11.29
2/24/2021 7:00:00 AM 3.62 38.516 0.507 7.82 24.29 11.32
2/24/2021 7:15:00 AM 3.56 38.408 0.507 7.82 23.92 11.38
2/24/2021 7:30:00 AM 3.53 38.354 0.506 7.83 19.91 11.47
2/24/2021 7:45:00 AM 3.5 38.3 0.507 7.83 20.34 11.59
2/24/2021 8:00:00 AM 3.49 38.282 0.507 7.83 18.26 11.74
2/24/2021 8:15:00 AM 3.48 38.264 0.507 7.84 16.94 11.93
2/24/2021 8:30:00 AM 3.49 38.282 0.507 7.85 15.18 12.13
2/24/2021 8:45:00 AM 3.53 38.354 0.507 7.86 15.02 12.34
2/24/2021 9:00:00 AM 3.56 38.408 0.507 7.88 16.19 12.56
2/24/2021 9:15:00 AM 3.65 38.57 0.507 7.89 12.97 12.82
2/24/2021 9:30:00 AM 3.74 38.732 0.507 7.91 13.21 13.04
2/24/2021 9:45:00 AM 3.85 38.93 0.507 7.92 12.74 13.27
2/24/2021 10:00:00 AM 3.99 39.182 0.507 7.94 11.92 13.47
2/24/2021 10:15:00 AM 4.16 39.488 0.507 7.95 12.81 13.71
2/24/2021 10:30:00 AM 4.34 39.812 0.507 7.97 11.31 13.9
2/24/2021 10:45:00 AM 4.53 40.154 0.506 7.98 10.83 14.09
2/24/2021 11:00:00 AM 4.74 40.532 0.505 8 10.53 14.31
2/24/2021 11:15:00 AM 4.95 40.91 0.505 8.02 9.9 14.46
2/24/2021 11:30:00 AM 5.17 41.306 0.503 8.03 9.61 14.64
2/24/2021 11:45:00 AM 5.4 41.72 0.503 8.05 10.78 14.8
2/24/2021 12:00:00 PM 5.63 42.134 0.502 8.06 10.47 14.91
2/24/2021 12:15:00 PM 5.87 42.566 0.502 8.08 9.36 15.01
2/24/2021 12:30:00 PM 6.09 42.962 0.503 8.09 14.11 15.07
2/24/2021 12:45:00 PM 6.3 43.34 0.502 8.11 10.29 15.12
2/24/2021 1:00:00 PM 6.51 43.718 0.501 8.12 11.62 15.22
2/24/2021 1:15:00 PM 6.72 44.096 0.5 8.14 14.98 15.25
2/24/2021 1:30:00 PM 6.94 44.492 0.5 8.15 12.42 15.24
2/24/2021 1:45:00 PM 7.07 44.726 0.5 8.16 12.81 15.26
2/24/2021 2:00:00 PM 7.2 44.96 0.499 8.18 11.45 15.27
2/24/2021 2:15:00 PM 7.41 45.338 0.499 8.19 10.68 15.31
2/24/2021 2:30:00 PM 7.54 45.572 0.499 8.2 11.61 15.31
2/24/2021 2:45:00 PM 7.67 45.806 0.499 8.21 11.82 15.25
2/24/2021 3:00:00 PM 7.79 46.022 0.498 8.22 11.27 15.23
2/24/2021 3:15:00 PM 7.9 46.22 0.498 8.22 14.36 15.18
2/24/2021 3:30:00 PM 7.96 46.328 0.496 8.23 14.57 15.07
2/24/2021 3:45:00 PM 8.04 46.472 0.496 8.23 15.33 14.96
2/24/2021 4:00:00 PM 8.09 46.562 0.496 8.23 13.25 14.85
2/24/2021 4:15:00 PM 8.14 46.652 0.496 8.22 14.24 14.72
2/24/2021 4:30:00 PM 8.18 46.724 0.495 8.22 12.74 14.54
2/24/2021 4:45:00 PM 8.21 46.778 0.495 8.22 12.66 14.35
2/24/2021 5:00:00 PM 8.26 46.868 0.495 8.2 13.42 14.12
2/24/2021 5:15:00 PM 8.29 46.922 0.495 8.18 14.9 13.76
2/24/2021 5:30:00 PM 8.31 46.958 0.495 8.15 19.31 13.32
2/24/2021 5:45:00 PM 8.32 46.976 0.495 8.11 25.52 12.82
2/24/2021 6:00:00 PM 8.32 46.976 0.494 8.07 31.48 12.38
2/24/2021 6:15:00 PM 8.31 46.958 0.493 8.04 36.14 12.06
2/24/2021 6:30:00 PM 8.31 46.958 0.491 8 38.22 11.8
2/24/2021 6:45:00 PM 8.33 46.994 0.49 7.98 37.5 11.6
2/24/2021 7:00:00 PM 8.34 47.012 0.488 7.96 37.24 11.42
2/24/2021 7:15:00 PM 8.36 47.048 0.486 7.95 36.78 11.25
2/24/2021 7:30:00 PM 8.36 47.048 0.485 7.93 40.17 11.1
2/24/2021 7:45:00 PM 8.36 47.048 0.483 7.92 38.81 11
2/24/2021 8:00:00 PM 8.38 47.084 0.48 7.91 36.67 10.9
2/24/2021 8:15:00 PM 8.4 47.12 0.478 7.9 37.33 10.8
2/24/2021 8:30:00 PM 8.4 47.12 0.478 7.89 36.27 10.72
2/24/2021 8:45:00 PM 8.37 47.066 0.484 7.89 55.61 10.65
2/24/2021 9:00:00 PM 8.37 47.066 0.48 7.88 47.77 10.54
2/24/2021 9:15:00 PM 8.35 47.03 0.475 7.87 36.71 10.44
2/24/2021 9:30:00 PM 8.28 46.904 0.473 7.86 35.74 10.36
2/24/2021 9:45:00 PM 8.18 46.724 0.471 7.85 30.84 10.32
2/24/2021 10:00:00 PM 8.04 46.472 0.471 7.73 36.54 10.27
2/24/2021 10:15:00 PM 7.87 46.166 0.47 7.8 33.74 10.29
2/24/2021 10:30:00 PM 7.68 45.824 0.469 7.79 40.33 10.3
2/24/2021 10:45:00 PM 7.5 45.5 0.468 7.78 37.48 10.3
2/24/2021 11:00:00 PM 7.32 45.176 0.466 7.73 43.63 10.32
2/24/2021 11:15:00 PM 7.14 44.852 0.464 7.74 45.18 10.32
2/24/2021 11:30:00 PM 6.97 44.546 0.463 7.73 53.4 10.33
2/24/2021 11:45:00 PM 6.81 44.258 0.463 7.73 59.2 10.32
2/25/2021 12:00:00 AM 6.67 44.006 0.463 7.72 62.19 10.33
2/25/2021 12:15:00 AM 6.55 43.79 0.462 7.71 72.03 10.36
2/25/2021 12:30:00 AM 6.43 43.574 0.459 7.7 75.61 10.39
2/25/2021 12:45:00 AM 6.31 43.358 0.457 7.72 80.35 10.44
2/25/2021 1:00:00 AM 6.18 43.124 0.455 7.71 66.95 10.54
2/25/2021 1:15:00 AM 6.03 42.854 0.453 7.7 83.61 10.62
2/25/2021 1:30:00 AM 5.88 42.584 0.45 7.71 74.5 10.71
2/25/2021 1:45:00 AM 5.73 42.314 0.446 7.73 72.05 10.81
2/25/2021 2:00:00 AM 5.58 42.044 0.442 7.7 88.16 10.9
2/25/2021 2:15:00 AM 5.41 41.738 0.439 7.71 87.23 10.96
2/25/2021 2:30:00 AM 5.24 41.432 0.435 7.71 86.35 11.04
2/25/2021 2:45:00 AM 5.05 41.09 0.431 7.73 103.6 11.12
2/25/2021 3:00:00 AM 4.88 40.784 0.428 7.63 97.47 11.2
2/25/2021 3:15:00 AM 4.75 40.55 0.426 7.73 97.37 11.27
2/25/2021 3:30:00 AM 4.63 40.334 0.425 7.71 119 11.33
2/25/2021 3:45:00 AM 4.53 40.154 0.422 7.69 105.5 11.37
2/25/2021 4:00:00 AM 4.46 40.028 0.419 7.71 99.62 11.41
2/25/2021 4:15:00 AM 4.4 39.92 0.418 7.67 98.9 11.44
2/25/2021 4:30:00 AM 4.36 39.848 0.416 7.7 105.5 11.46
2/25/2021 4:45:00 AM 4.32 39.776 0.416 7.65 94.38 11.48
2/25/2021 5:00:00 AM 4.27 39.686 0.415 7.69 89.93 11.52
2/25/2021 5:15:00 AM 4.23 39.614 0.415 7.69 85.51 11.54
2/25/2021 5:30:00 AM 4.2 39.56 0.414 7.65 84.24 11.56
2/25/2021 5:45:00 AM 4.15 39.47 0.413 7.65 87.3 11.59
2/25/2021 6:00:00 AM 4.11 39.398 0.412 7.69 86.34 11.59
2/25/2021 6:15:00 AM 4.07 39.326 0.412 7.68 71.13 11.63
2/25/2021 6:30:00 AM 4.04 39.272 0.412 7.68 69.35 11.64
2/25/2021 6:45:00 AM 4 39.2 0.412 7.66 77.06 11.67
2/25/2021 7:00:00 AM 3.97 39.146 0.411 7.69 71.32 11.68
2/25/2021 7:15:00 AM 3.95 39.11 0.412 7.65 69.09 11.7
2/25/2021 7:30:00 AM 3.94 39.092 0.413 7.69 66.86 11.72
2/25/2021 7:45:00 AM 3.94 39.092 0.414 7.69 69.6 11.72
2/25/2021 8:00:00 AM 3.96 39.128 0.415 7.68 59.36 11.76
2/25/2021 8:15:00 AM 3.99 39.182 0.417 7.64 54.76 11.79
2/25/2021 8:30:00 AM 4.04 39.272 0.418 7.69 59.31 11.83
2/25/2021 8:45:00 AM 4.12 39.416 0.419 7.69 56.12 11.9
2/25/2021 9:00:00 AM 4.17 39.506 0.42 7.69 55.35 11.97
2/25/2021 9:15:00 AM 4.21 39.578 0.422 7.69 49.26 12.01
2/25/2021 9:30:00 AM 4.27 39.686 0.423 7.71 45.92 12.05
2/25/2021 9:45:00 AM 4.36 39.848 0.425 7.71 43.33 12.13
2/25/2021 10:00:00 AM 4.46 40.028 0.427 7.72 45.06 12.25
2/25/2021 10:15:00 AM 4.55 40.19 0.429 7.72 46.65 12.29
2/25/2021 10:30:00 AM 4.65 40.37 0.431 7.69 44.02 12.39
2/25/2021 10:45:00 AM 4.76 40.568 0.433 7.73 42.63 12.47
2/25/2021 11:00:00 AM 4.88 40.784 0.435 7.75 37.39 12.56
2/25/2021 11:15:00 AM 5.04 41.072 0.436 7.76 37.43 12.65
2/25/2021 11:30:00 AM 5.2 41.36 0.438 7.77 43.24 12.72
2/25/2021 11:45:00 AM 5.35 41.63 0.439 7.78 35.06 12.82
2/25/2021 12:00:00 PM 5.5 41.9 0.44 7.76 35.05 12.91
2/25/2021 12:15:00 PM 5.67 42.206 0.442 7.77 34.09 12.99
2/25/2021 12:30:00 PM 5.85 42.53 0.443 7.81 35.29 13.06
2/25/2021 12:45:00 PM 6.03 42.854 0.444 7.79 33.14 13.14
2/25/2021 1:00:00 PM 6.25 43.25 0.445 7.83 31.93 13.17
2/25/2021 1:15:00 PM 6.46 43.628 0.446 7.81 31.41 13.24
2/25/2021 1:30:00 PM 6.67 44.006 0.447 7.83 31.16 13.27
2/25/2021 1:45:00 PM 6.87 44.366 0.448 7.84 31.59 13.28
2/25/2021 2:00:00 PM 7.08 44.744 0.45 7.85 36.07 13.27
2/25/2021 2:15:00 PM 7.26 45.068 0.45 7.88 33.01 13.25
2/25/2021 2:30:00 PM 7.45 45.41 0.451 7.86 29.66 13.21
2/25/2021 2:45:00 PM 7.61 45.698 0.452 7.87 33.7 13.17
2/25/2021 3:00:00 PM 7.76 45.968 0.452 7.87 30.2 13.14
2/25/2021 3:15:00 PM 7.91 46.238 0.452 7.88 34.81 13.08
2/25/2021 3:30:00 PM 8.04 46.472 0.453 7.88 36.71 12.98
2/25/2021 3:45:00 PM 8.16 46.688 0.453 7.91 34.46 12.85
2/25/2021 4:00:00 PM 8.27 46.886 0.453 7.88 38.09 12.72
2/25/2021 4:15:00 PM 8.37 47.066 0.452 7.88 38.07 12.55
2/25/2021 4:30:00 PM 8.45 47.21 0.452 7.89 43.7 12.35
2/25/2021 4:45:00 PM 8.51 47.318 0.45 7.86 49.78 12.14
2/25/2021 5:00:00 PM 8.54 47.372 0.448 7.88 48.69 11.92
2/25/2021 5:15:00 PM 8.54 47.372 0.445 7.83 59.46 11.74
2/25/2021 5:30:00 PM 8.49 47.282 0.443 7.85 67.08 11.58
2/25/2021 5:45:00 PM 8.41 47.138 0.44 7.84 62.27 11.45
2/25/2021 6:00:00 PM 8.3 46.94 0.436 7.83 64.98 11.34
2/25/2021 6:15:00 PM 8.14 46.652 0.43 7.78 83.62 11.25
2/25/2021 6:30:00 PM 7.96 46.328 0.423 7.78 97.41 11.19
2/25/2021 6:45:00 PM 7.76 45.968 0.418 7.77 80.13 11.17
2/25/2021 7:00:00 PM 7.54 45.572 0.413 7.74 96.65 11.17
2/25/2021 7:15:00 PM 7.33 45.194 0.41 7.74 100.6 11.17
2/25/2021 7:30:00 PM 7.13 44.834 0.409 7.7 102 11.17
2/25/2021 7:45:00 PM 6.95 44.51 0.408 7.7 105.4 11.19
2/25/2021 8:00:00 PM 6.79 44.222 0.406 7.69 95.21 11.19
2/25/2021 8:15:00 PM 6.63 43.934 0.405 7.68 100.8 11.19
2/25/2021 8:30:00 PM 6.48 43.664 0.405 7.68 111.4 11.21
2/25/2021 8:45:00 PM 6.35 43.43 0.405 7.67 103.3 11.22
2/25/2021 9:00:00 PM 6.22 43.196 0.406 7.68 96.76 11.24
2/25/2021 9:15:00 PM 6.11 42.998 0.407 7.65 86.09 11.23
2/25/2021 9:30:00 PM 6.01 42.818 0.408 7.65 85.61 11.25
2/25/2021 9:45:00 PM 5.91 42.638 0.409 7.66 80.99 11.27
2/25/2021 10:00:00 PM 5.82 42.476 0.411 7.64 81.67 11.26
2/25/2021 10:15:00 PM 5.74 42.332 0.412 7.64 79.58 11.27
2/25/2021 10:30:00 PM 5.65 42.17 0.413 7.65 91.12 11.27
2/25/2021 10:45:00 PM 5.57 42.026 0.414 7.63 74.57 11.29
2/25/2021 11:00:00 PM 5.49 41.882 0.415 7.64 72.36 11.3
2/25/2021 11:15:00 PM 5.4 41.72 0.416 7.62 75.6 11.32
2/25/2021 11:30:00 PM 5.32 41.576 0.417 7.64 69.85 11.34
2/25/2021 11:45:00 PM 5.25 41.45 0.418 7.64 66.71 11.37
2/26/2021 12:00:00 AM 5.18 41.324 0.42 7.62 68.86 11.38
2/26/2021 12:15:00 AM 5.13 41.234 0.422 7.61 65.09 11.39
2/26/2021 12:30:00 AM 5.09 41.162 0.424 7.61 66.23 11.4
2/26/2021 12:45:00 AM 5.05 41.09 0.426 7.64 61.79 11.42
2/26/2021 1:00:00 AM 5.01 41.018 0.427 7.63 65.12 11.45
2/26/2021 1:15:00 AM 4.98 40.964 0.429 7.61 62.99 11.47
2/26/2021 1:30:00 AM 4.96 40.928 0.43 7.61 61.39 11.49
2/26/2021 1:45:00 AM 4.94 40.892 0.432 7.61 61.83 11.48
2/26/2021 2:00:00 AM 4.93 40.874 0.434 7.62 76.52 11.51
2/26/2021 2:15:00 AM 4.91 40.838 0.436 7.62 66.79 11.52
2/26/2021 2:30:00 AM 4.89 40.802 0.437 7.64 72.39 11.53
2/26/2021 2:45:00 AM 4.87 40.766 0.44 7.65 73.24 11.54
2/26/2021 3:00:00 AM 4.87 40.766 0.442 7.65 66.42 11.53
2/26/2021 3:15:00 AM 4.87 40.766 0.445 7.64 61.14 11.54
2/26/2021 3:30:00 AM 4.87 40.766 0.446 7.64 64.06 11.56
2/26/2021 3:45:00 AM 4.87 40.766 0.448 7.65 62.63 11.55
2/26/2021 4:00:00 AM 4.86 40.748 0.449 7.66 63.73 11.55
2/26/2021 4:15:00 AM 4.85 40.73 0.45 7.66 57.39 11.56
2/26/2021 4:30:00 AM 4.84 40.712 0.451 7.64 58.58 11.56
2/26/2021 4:45:00 AM 4.84 40.712 0.452 7.67 64.91 11.58
2/26/2021 5:00:00 AM 4.83 40.694 0.454 7.66 61.68 11.57
2/26/2021 5:15:00 AM 4.82 40.676 0.455 7.65 62.47 11.58
2/26/2021 5:30:00 AM 4.82 40.676 0.457 7.65 58.55 11.59
2/26/2021 5:45:00 AM 4.8 40.64 0.458 7.65 59.86 11.58
2/26/2021 6:00:00 AM 4.79 40.622 0.46 7.65 62.73 11.6
2/26/2021 6:15:00 AM 4.78 40.604 0.461 7.66 55.78 11.61
2/26/2021 6:30:00 AM 4.77 40.586 0.462 7.66 57.74 11.62
2/26/2021 6:45:00 AM 4.75 40.55 0.463 7.66 66.52 11.62
2/26/2021 7:00:00 AM 4.74 40.532 0.463 7.66 61.82 11.63
2/26/2021 7:15:00 AM 4.73 40.514 0.464 7.67 67.83 11.66
2/26/2021 7:30:00 AM 4.73 40.514 0.465 7.67 52.66 11.68
2/26/2021 7:45:00 AM 4.73 40.514 0.466 7.67 50.17 11.71
2/26/2021 8:00:00 AM 4.75 40.55 0.467 7.69 48.82 11.75
2/26/2021 8:15:00 AM 4.78 40.604 0.468 7.69 50.14 11.81
2/26/2021 8:30:00 AM 4.82 40.676 0.468 7.68 50.45 11.86
2/26/2021 8:45:00 AM 4.88 40.784 0.469 7.68 52.69 11.97
2/26/2021 9:00:00 AM 4.95 40.91 0.47 7.7 50.99 12.06
2/26/2021 9:15:00 AM 5.04 41.072 0.471 7.71 52.45 12.13
2/26/2021 9:30:00 AM 5.13 41.234 0.471 7.72 51.71 12.23
2/26/2021 9:45:00 AM 5.24 41.432 0.472 7.71 42.84 12.31
2/26/2021 10:00:00 AM 5.36 41.648 0.473 7.72 47.66 12.43
2/26/2021 10:15:00 AM 5.46 41.828 0.474 7.73 44.29 12.49
2/26/2021 10:30:00 AM 5.56 42.008 0.474 7.74 46.68 12.55
2/26/2021 10:45:00 AM 5.71 42.278 0.475 7.76 44.63 12.67
2/26/2021 11:00:00 AM 5.87 42.566 0.475 7.76 45.37 12.79
2/26/2021 11:15:00 AM 6 42.8 0.476 7.77 60.25 12.85
2/26/2021 11:30:00 AM 6.13 43.034 0.477 7.79 47.43 12.92
2/26/2021 11:45:00 AM 6.27 43.286 0.477 7.79 49.53 12.98
2/26/2021 12:00:00 PM 6.42 43.556 0.478 7.8 47.94 13.05
2/26/2021 12:15:00 PM 6.58 43.844 0.478 7.8 48.22 13.1
2/26/2021 12:30:00 PM 6.73 44.114 0.479 7.81 50.34 13.15
2/26/2021 12:45:00 PM 6.89 44.402 0.48 7.82 48.79 13.2
2/26/2021 1:00:00 PM 7.05 44.69 0.481 7.83 48.63 13.2
2/26/2021 1:15:00 PM 7.21 44.978 0.48 7.84 49.43 13.23
2/26/2021 1:30:00 PM 7.37 45.266 0.48 7.85 50.42 13.24
2/26/2021 1:45:00 PM 7.51 45.518 0.479 7.85 49.65 13.25
2/26/2021 2:00:00 PM 7.64 45.752 0.478 7.86 51.12 13.23
2/26/2021 2:15:00 PM 7.78 46.004 0.478 7.87 52.31 13.21
2/26/2021 2:30:00 PM 7.92 46.256 0.478 7.86 48.21 13.15
2/26/2021 2:45:00 PM 8.05 46.49 0.477 7.88 50.97 13.12
2/26/2021 3:00:00 PM 8.16 46.688 0.477 7.87 49.81 13.05
2/26/2021 3:15:00 PM 8.25 46.85 0.477 7.87 55.49 12.96
2/26/2021 3:30:00 PM 8.35 47.03 0.477 7.87 54.41 12.89
2/26/2021 3:45:00 PM 8.43 47.174 0.476 7.87 55.83 12.78
2/26/2021 4:00:00 PM 8.49 47.282 0.476 7.86 54.44 12.64
2/26/2021 4:15:00 PM 8.54 47.372 0.476 7.85 59.03 12.49
2/26/2021 4:30:00 PM 8.58 47.444 0.475 7.85 53.81 12.35
2/26/2021 4:45:00 PM 8.6 47.48 0.475 7.85 54.64 12.18
2/26/2021 5:00:00 PM 8.62 47.516 0.474 7.83 60.82 12.06
2/26/2021 5:15:00 PM 8.62 47.516 0.474 7.82 58.45 11.89
2/26/2021 5:30:00 PM 8.61 47.498 0.473 7.83 58.91 11.75
2/26/2021 5:45:00 PM 8.61 47.498 0.472 7.81 60.31 11.63
2/26/2021 6:00:00 PM 8.58 47.444 0.471 7.81 63.32 11.49
2/26/2021 6:15:00 PM 8.55 47.39 0.471 7.78 65.88 11.39
2/26/2021 6:30:00 PM 8.49 47.282 0.47 7.79 66.41 11.28
2/26/2021 6:45:00 PM 8.42 47.156 0.469 7.78 73.39 11.2
2/26/2021 7:00:00 PM 8.35 47.03 0.468 7.76 74.26 11.13
2/26/2021 7:15:00 PM 8.27 46.886 0.467 7.76 80.14 11.08
2/26/2021 7:30:00 PM 8.19 46.742 0.466 7.76 79.87 11.06
2/26/2021 7:45:00 PM 8.1 46.58 0.465 7.74 75.11 11.01
2/26/2021 8:00:00 PM 8 46.4 0.465 7.75 72.69 10.98
2/26/2021 8:15:00 PM 7.9 46.22 0.465 7.74 78.58 10.95
2/26/2021 8:30:00 PM 7.78 46.004 0.464 7.72 78.73 10.92
2/26/2021 8:45:00 PM 7.69 45.842 0.464 7.73 82.74 10.91
2/26/2021 9:00:00 PM 7.6 45.68 0.464 7.72 81.98 10.9
2/26/2021 9:15:00 PM 7.5 45.5 0.463 7.72 78.41 10.9
2/26/2021 9:30:00 PM 7.4 45.32 0.463 7.71 84.44 10.9
2/26/2021 9:45:00 PM 7.3 45.14 0.464 7.71 83.98 10.91
2/26/2021 10:00:00 PM 7.21 44.978 0.464 7.71 77.4 10.91
2/26/2021 10:15:00 PM 7.12 44.816 0.464 7.69 96.18 10.93
2/26/2021 10:30:00 PM 7.03 44.654 0.464 7.68 82.73 10.94
2/26/2021 10:45:00 PM 6.95 44.51 0.465 7.7 85.84 10.95
2/26/2021 11:00:00 PM 6.88 44.384 0.466 7.68 89.07 10.99
2/26/2021 11:15:00 PM 6.81 44.258 0.466 7.7 88.64 10.98
2/26/2021 11:30:00 PM 6.75 44.15 0.467 7.67 87.34 11.01
2/26/2021 11:45:00 PM 6.69 44.042 0.468 7.67 92.66 11.01
2/27/2021 12:00:00 AM 6.64 43.952 0.469 7.68 89.31 11.01
2/27/2021 12:15:00 AM 6.59 43.862 0.469 7.69 88.74 11.04
2/27/2021 12:30:00 AM 6.53 43.754 0.469 7.69 94.87 11.05
2/27/2021 12:45:00 AM 6.47 43.646 0.469 7.69 84.43 11.05
2/27/2021 1:00:00 AM 6.43 43.574 0.469 7.68 80.59 11.06
2/27/2021 1:15:00 AM 6.36 43.448 0.47 7.69 83.15 11.07
2/27/2021 1:30:00 AM 6.32 43.376 0.472 7.67 87.62 11.07
2/27/2021 1:45:00 AM 6.27 43.286 0.473 7.7 78.73 11.07
2/27/2021 2:00:00 AM 6.22 43.196 0.474 7.68 82.12 11.07
2/27/2021 2:15:00 AM 6.21 43.178 0.475 7.69 81.91 11.05
2/27/2021 2:30:00 AM 6.2 43.16 0.476 7.7 79.38 11.05
2/27/2021 2:45:00 AM 6.18 43.124 0.476 7.7 87.33 11.05
2/27/2021 3:00:00 AM 6.16 43.088 0.477 7.68 83.86 11.07
2/27/2021 3:15:00 AM 6.15 43.07 0.478 7.7 82.38 11.06
2/27/2021 3:30:00 AM 6.12 43.016 0.478 7.7 82.36 11.07
2/27/2021 3:45:00 AM 6.09 42.962 0.478 7.69 80.04 11.08
2/27/2021 4:00:00 AM 6.08 42.944 0.478 7.7 82.56 11.08
2/27/2021 4:15:00 AM 6.07 42.926 0.478 7.68 78.21 11.1
2/27/2021 4:30:00 AM 6.07 42.926 0.478 7.69 83.09 11.07
2/27/2021 4:45:00 AM 6.07 42.926 0.477 7.68 87.32 11.1
2/27/2021 5:00:00 AM 6.06 42.908 0.477 7.7 82.82 11.11
2/27/2021 5:15:00 AM 6.05 42.89 0.476 7.69 77.99 11.12
2/27/2021 5:30:00 AM 6.04 42.872 0.476 7.69 84.49 11.12
2/27/2021 5:45:00 AM 6.03 42.854 0.475 7.69 86.88 11.13
2/27/2021 6:00:00 AM 6.02 42.836 0.475 7.67 86.98 11.12
2/27/2021 6:15:00 AM 6.01 42.818 0.475 7.67 87.18 11.14
2/27/2021 6:30:00 AM 6.01 42.818 0.475 7.68 93.74 11.15
2/27/2021 6:45:00 AM 6 42.8 0.474 7.69 93.21 11.16
2/27/2021 7:00:00 AM 6 42.8 0.474 7.67 93.1 11.16
2/27/2021 7:15:00 AM 6.01 42.818 0.474 7.69 92.95 11.18
2/27/2021 7:30:00 AM 6 42.8 0.474 7.67 94.9 11.17
2/27/2021 7:45:00 AM 6 42.8 0.474 7.69 94.14 11.2
2/27/2021 8:00:00 AM 6.01 42.818 0.474 7.69 106 11.23
2/27/2021 8:15:00 AM 6.01 42.818 0.474 7.69 94.14 11.26
2/27/2021 8:30:00 AM 6.02 42.836 0.475 7.68 95.23 11.25
2/27/2021 8:45:00 AM 6.04 42.872 0.475 7.69 89.36 11.27
2/27/2021 9:00:00 AM 6.05 42.89 0.476 7.69 96.53 11.29
2/27/2021 9:15:00 AM 6.07 42.926 0.476 7.7 94.01 11.34
2/27/2021 9:30:00 AM 6.1 42.98 0.476 7.69 94.08 11.36
2/27/2021 9:45:00 AM 6.12 43.016 0.476 7.69 96.83 11.41
2/27/2021 10:00:00 AM 6.16 43.088 0.476 7.71 94.62 11.49
2/27/2021 10:15:00 AM 6.2 43.16 0.476 7.7 96.46 11.58
2/27/2021 10:30:00 AM 6.23 43.214 0.477 7.72 91.75 11.63
2/27/2021 10:45:00 AM 6.27 43.286 0.478 7.71 93.05 11.66
2/27/2021 11:00:00 AM 6.31 43.358 0.478 7.72 92.29 11.69
2/27/2021 11:15:00 AM 6.36 43.448 0.478 7.72 87.48 11.77
2/27/2021 11:30:00 AM 6.42 43.556 0.478 7.73 87.86 11.87
2/27/2021 11:45:00 AM 6.48 43.664 0.478 7.74 88.08 11.96
2/27/2021 12:00:00 PM 6.56 43.808 0.478 7.74 88.14 12.07
2/27/2021 12:15:00 PM 6.66 43.988 0.478 7.77 89.91 12.19
2/27/2021 12:30:00 PM 6.78 44.204 0.478 7.77 95.3 12.31
2/27/2021 12:45:00 PM 6.93 44.474 0.478 7.78 87.97 12.45
2/27/2021 1:00:00 PM 7.09 44.762 0.478 7.79 86.94 12.56
2/27/2021 1:15:00 PM 7.19 44.942 0.478 7.8 95.99 12.64
2/27/2021 1:30:00 PM 7.23 45.014 0.478 7.81 95.39 12.59
2/27/2021 1:45:00 PM 7.26 45.068 0.477 7.81 102.1 12.58
2/27/2021 2:00:00 PM 7.33 45.194 0.477 7.81 99.7 12.58
2/27/2021 2:15:00 PM 7.39 45.302 0.477 7.82 99.94 12.6
2/27/2021 2:30:00 PM 7.44 45.392 0.478 7.83 98.51 12.54
2/27/2021 2:45:00 PM 7.48 45.464 0.479 7.82 100.4 12.47
2/27/2021 3:00:00 PM 7.53 45.554 0.478 7.82 103.9 12.4
2/27/2021 3:15:00 PM 7.57 45.626 0.477 7.82 102.9 12.36
2/27/2021 3:30:00 PM 7.62 45.716 0.476 7.81 105.8 12.28
2/27/2021 3:45:00 PM 7.66 45.788 0.474 7.83 109.2 12.2
2/27/2021 4:00:00 PM 7.7 45.86 0.474 7.81 102.8 12.15
2/27/2021 4:15:00 PM 7.75 45.95 0.473 7.82 111.5 12.1
2/27/2021 4:30:00 PM 7.8 46.04 0.471 7.82 111.5 12.05
2/27/2021 4:45:00 PM 7.86 46.148 0.47 7.82 110.7 11.99
2/27/2021 5:00:00 PM 7.92 46.256 0.469 7.8 111.2 11.93
2/27/2021 5:15:00 PM 7.98 46.364 0.467 7.81 111.9 11.89
2/27/2021 5:30:00 PM 8.04 46.472 0.464 7.79 109.5 11.82
2/27/2021 5:45:00 PM 8.07 46.526 0.462 7.79 97.32 11.75
2/27/2021 6:00:00 PM 8.09 46.562 0.459 7.8 106.3 11.65
2/27/2021 6:15:00 PM 8.1 46.58 0.455 7.78 110.1 11.57
2/27/2021 6:30:00 PM 8.1 46.58 0.451 7.78 102.4 11.48
2/27/2021 6:45:00 PM 8.09 46.562 0.447 7.76 109.3 11.39
2/27/2021 7:00:00 PM 8.07 46.526 0.443 7.75 111.8 11.31
2/27/2021 7:15:00 PM 8.05 46.49 0.439 7.75 109.1 11.23
2/27/2021 7:30:00 PM 8.01 46.418 0.436 7.73 108.9 11.16
2/27/2021 7:45:00 PM 7.95 46.31 0.432 7.72 110.7 11.1
2/27/2021 8:00:00 PM 7.87 46.166 0.429 7.71 118.6 11.07
2/27/2021 8:15:00 PM 7.78 46.004 0.428 7.72 112 11.04
2/27/2021 8:30:00 PM 7.68 45.824 0.428 7.69 125.3 11
2/27/2021 8:45:00 PM 7.58 45.644 0.428 7.71 123.2 10.99
2/27/2021 9:00:00 PM 7.47 45.446 0.428 7.68 121.9 10.99
2/27/2021 9:15:00 PM 7.37 45.266 0.428 7.7 131.4 11
2/27/2021 9:30:00 PM 7.27 45.086 0.428 7.69 111.8 10.99
2/27/2021 9:45:00 PM 7.19 44.942 0.429 7.67 116.9 10.99
2/27/2021 10:00:00 PM 7.11 44.798 0.43 7.67 119.7 11
2/27/2021 10:15:00 PM 7.04 44.672 0.431 7.66 109.8 11.01
2/27/2021 10:30:00 PM 6.97 44.546 0.432 7.68 110.8 11.01
2/27/2021 10:45:00 PM 6.9 44.42 0.433 7.67 123.9 11.02
2/27/2021 11:00:00 PM 6.84 44.312 0.435 7.67 123.5 11.02
2/27/2021 11:15:00 PM 6.78 44.204 0.436 7.66 115.7 11.03
2/27/2021 11:30:00 PM 6.71 44.078 0.437 7.67 123 11.05
2/27/2021 11:45:00 PM 6.65 43.97 0.438 7.67 114.5 11.06
2/28/2021 12:00:00 AM 6.59 43.862 0.439 7.66 115.7 11.08
2/28/2021 12:15:00 AM 6.53 43.754 0.441 7.64 120.8 11.1
2/28/2021 12:30:00 AM 6.48 43.664 0.442 7.66 117.4 11.11
2/28/2021 12:45:00 AM 6.42 43.556 0.443 7.66 122.3 11.14
2/28/2021 1:00:00 AM 6.37 43.466 0.444 7.65 120.7 11.15
2/28/2021 1:15:00 AM 6.33 43.394 0.445 7.65 118.4 11.16
2/28/2021 1:30:00 AM 6.29 43.322 0.446 7.65 120.1 11.19
2/28/2021 1:45:00 AM 6.25 43.25 0.447 7.66 121.8 11.21
2/28/2021 2:00:00 AM 6.22 43.196 0.448 7.66 112 11.19
2/28/2021 2:15:00 AM 6.19 43.142 0.449 7.67 103.8 11.21
2/28/2021 2:30:00 AM 6.17 43.106 0.451 7.67 105.4 11.23
2/28/2021 2:45:00 AM 6.15 43.07 0.452 7.67 108.2 11.23
2/28/2021 3:00:00 AM 6.14 43.052 0.454 7.67 109.4 11.22
2/28/2021 3:15:00 AM 6.14 43.052 0.455 7.65 107.4 11.22
2/28/2021 3:30:00 AM 6.13 43.034 0.456 7.67 111.6 11.22
2/28/2021 3:45:00 AM 6.13 43.034 0.457 7.67 110 11.23
2/28/2021 4:00:00 AM 6.13 43.034 0.458 7.66 104 11.23
2/28/2021 4:15:00 AM 6.13 43.034 0.459 7.65 114.8 11.23
2/28/2021 4:30:00 AM 6.13 43.034 0.46 7.66 113.7 11.23
2/28/2021 4:45:00 AM 6.14 43.052 0.461 7.67 111.5 11.23
2/28/2021 5:00:00 AM 6.15 43.07 0.462 7.68 109.6 11.24
2/28/2021 5:15:00 AM 6.15 43.07 0.463 7.68 107 11.23
2/28/2021 5:30:00 AM 6.17 43.106 0.463 7.66 103.3 11.23
2/28/2021 5:45:00 AM 6.18 43.124 0.464 7.68 109.5 11.21
2/28/2021 6:00:00 AM 6.2 43.16 0.465 7.68 105.8 11.23
2/28/2021 6:15:00 AM 6.22 43.196 0.466 7.67 117.8 11.22
2/28/2021 6:30:00 AM 6.23 43.214 0.466 7.67 110.2 11.22
2/28/2021 6:45:00 AM 6.25 43.25 0.467 7.67 88.69 11.22
2/28/2021 7:00:00 AM 6.27 43.286 0.467 7.69 102.5 11.21
2/28/2021 7:15:00 AM 6.28 43.304 0.467 7.67 107.5 11.21
2/28/2021 7:30:00 AM 6.3 43.34 0.468 7.68 105.9 11.21
2/28/2021 7:45:00 AM 6.31 43.358 0.468 7.69 105.6 11.22
2/28/2021 8:00:00 AM 6.33 43.394 0.469 7.69 111.6 11.26
2/28/2021 8:15:00 AM 6.36 43.448 0.469 7.68 102.9 11.27
2/28/2021 8:30:00 AM 6.38 43.484 0.469 7.68 100.3 11.28
2/28/2021 8:45:00 AM 6.41 43.538 0.469 7.68 105.6 11.29
2/28/2021 9:00:00 AM 6.43 43.574 0.469 7.7 92.46 11.3
2/28/2021 9:15:00 AM 6.45 43.61 0.469 7.7 112.4 11.32
2/28/2021 9:30:00 AM 6.45 43.61 0.468 7.7 110.1 11.35
2/28/2021 9:45:00 AM 6.48 43.664 0.469 7.71 135 11.37
2/28/2021 10:00:00 AM 6.52 43.736 0.468 7.69 115.5 11.39
2/28/2021 10:15:00 AM 6.55 43.79 0.468 7.71 110.6 11.46
2/28/2021 10:30:00 AM 6.57 43.826 0.466 7.7 111.5 11.46
2/28/2021 10:45:00 AM 6.59 43.862 0.465 7.72 110.8 11.49
2/28/2021 11:00:00 AM 6.62 43.916 0.465 7.73 100.1 11.49
2/28/2021 11:15:00 AM 6.64 43.952 0.462 7.71 102.4 11.5
2/28/2021 11:30:00 AM 6.66 43.988 0.46 7.73 94.86 11.49
2/28/2021 11:45:00 AM 6.66 43.988 0.459 7.71 98.29 11.43
2/28/2021 12:00:00 PM 6.66 43.988 0.455 7.72 116.4 11.43
2/28/2021 12:15:00 PM 6.64 43.952 0.449 7.72 130.9 11.43
2/28/2021 12:30:00 PM 6.63 43.934 0.445 7.71 122.8 11.44
2/28/2021 12:45:00 PM 6.62 43.916 0.442 7.72 137.6 11.43
2/28/2021 1:00:00 PM 6.61 43.898 0.438 7.72 125.7 11.43
2/28/2021 1:15:00 PM 6.58 43.844 0.431 7.7 129.7 11.45
2/28/2021 1:30:00 PM 6.54 43.772 0.425 7.71 147 11.49
2/28/2021 1:45:00 PM 6.49 43.682 0.418 7.72 149.9 11.52
2/28/2021 2:00:00 PM 6.39 43.502 0.409 7.72 166.1 11.55
2/28/2021 2:15:00 PM 6.28 43.304 0.402 7.72 179.8 11.59
2/28/2021 2:30:00 PM 6.15 43.07 0.396 7.7 191 11.62
2/28/2021 2:45:00 PM 5.96 42.728 0.387 7.71 217.3 11.64
2/28/2021 3:00:00 PM 5.73 42.314 0.375 7.71 252.1 11.7
2/28/2021 3:15:00 PM 5.47 41.846 0.362 7.71 307.2 11.74
2/28/2021 3:30:00 PM 5.21 41.378 0.351 7.69 348.1 11.78
2/28/2021 3:45:00 PM 5 41 0.344 7.69 362.2 11.82
2/28/2021 4:00:00 PM 4.82 40.676 0.338 7.69 389.9 11.85
2/28/2021 4:15:00 PM 4.69 40.442 0.331 7.68 402.6 11.89
2/28/2021 4:30:00 PM 4.61 40.298 0.325 7.67 402.7 11.91
2/28/2021 4:45:00 PM 4.58 40.244 0.32 7.63 404.8 11.91
2/28/2021 5:00:00 PM 4.57 40.226 0.292 7.62 387.8 11.92
2/28/2021 5:15:00 PM 4.57 40.226 0.313 7.61 375.8 11.88
2/28/2021 5:30:00 PM 4.57 40.226 0.311 7.59 372.2 11.88
2/28/2021 5:45:00 PM 4.58 40.244 0.308 7.61 356.4 11.85
2/28/2021 6:00:00 PM 4.6 40.28 0.305 7.59 336.4 11.83
2/28/2021 6:15:00 PM 4.65 40.37 0.305 7.58 316.4 11.79
2/28/2021 6:30:00 PM 4.72 40.496 0.305 7.57 292.4 11.74
2/28/2021 6:45:00 PM 4.81 40.658 0.308 7.55 273.5 11.7
2/28/2021 7:00:00 PM 4.9 40.82 0.311 7.54 260.6 11.66
2/28/2021 7:15:00 PM 4.98 40.964 0.314 7.51 239.6 11.62
2/28/2021 7:30:00 PM 5.06 41.108 0.317 7.52 221.5 11.57
2/28/2021 7:45:00 PM 5.14 41.252 0.321 7.48 210.3 11.52
2/28/2021 8:00:00 PM 5.2 41.36 0.324 7.52 199.9 11.51
2/28/2021 8:15:00 PM 5.26 41.468 0.327 7.48 187.3 11.48
2/28/2021 8:30:00 PM 5.32 41.576 0.331 7.47 186.1 11.45
2/28/2021 8:45:00 PM 5.38 41.684 0.335 7.48 167.3 11.43
2/28/2021 9:00:00 PM 5.44 41.792 0.339 7.51 179 11.4
2/28/2021 9:15:00 PM 5.49 41.882 0.342 7.51 150.9 11.39
2/28/2021 9:30:00 PM 5.53 41.954 0.346 7.51 147.2 11.37
2/28/2021 9:45:00 PM 5.58 42.044 0.349 7.51 137.3 11.37
2/28/2021 10:00:00 PM 5.62 42.116 0.351 7.52 134.4 11.35
2/28/2021 10:15:00 PM 5.66 42.188 0.353 7.52 129.1 11.33
2/28/2021 10:30:00 PM 5.7 42.26 0.355 7.47 130.8 11.31
2/28/2021 10:45:00 PM 5.73 42.314 0.356 7.52 129.9 11.3
2/28/2021 11:00:00 PM 5.76 42.368 0.358 7.52 123.3 11.27
2/28/2021 11:15:00 PM 5.79 42.422 0.36 7.49 120.8 11.28
2/28/2021 11:30:00 PM 5.81 42.458 0.362 7.53 116.7 11.27
2/28/2021 11:45:00 PM 5.83 42.494 0.364 7.51 116.8 11.26
3/1/2021 12:00:00 AM 5.86 42.548 0.366 7.53 113 11.25
3/1/2021 12:15:00 AM 5.88 42.584 0.368 7.53 111.6 11.25
3/1/2021 12:30:00 AM 5.9 42.62 0.369 7.53 109.3 11.25
3/1/2021 12:45:00 AM 5.92 42.656 0.37 7.54 107.9 11.24
3/1/2021 1:00:00 AM 5.94 42.692 0.371 7.54 104.4 11.24
3/1/2021 1:15:00 AM 5.96 42.728 0.372 7.53 103.3 11.23
3/1/2021 1:30:00 AM 5.98 42.764 0.373 7.54 104.4 11.23
3/1/2021 1:45:00 AM 6 42.8 0.373 7.54 100.4 11.22
3/1/2021 2:00:00 AM 6.02 42.836 0.374 7.54 99.24 11.2
3/1/2021 2:15:00 AM 6.04 42.872 0.374 7.54 99.56 11.21
3/1/2021 2:30:00 AM 6.06 42.908 0.374 7.53 98.77 11.2
3/1/2021 2:45:00 AM 6.08 42.944 0.375 7.54 96.67 11.19
3/1/2021 3:00:00 AM 6.1 42.98 0.375 7.54 95.17 11.19
3/1/2021 3:15:00 AM 6.11 42.998 0.375 7.53 96.07 11.18
3/1/2021 3:30:00 AM 6.13 43.034 0.375 7.54 96.98 11.18
3/1/2021 3:45:00 AM 6.13 43.034 0.375 7.55 99.84 11.17
3/1/2021 4:00:00 AM 6.13 43.034 0.374 7.55 94.68 11.19
3/1/2021 4:15:00 AM 6.11 42.998 0.372 7.55 103.5 11.2
3/1/2021 4:30:00 AM 6.11 42.998 0.371 7.55 99.5 11.21
3/1/2021 4:45:00 AM 6.13 43.034 0.372 7.53 97.92 11.2
3/1/2021 5:00:00 AM 6.13 43.034 0.371 7.55 100.5 11.19
3/1/2021 5:15:00 AM 6.13 43.034 0.37 7.56 100.7 11.17
3/1/2021 5:30:00 AM 6.12 43.016 0.366 7.55 101.7 11.19
3/1/2021 5:45:00 AM 6.1 42.98 0.364 7.55 104.3 11.2
3/1/2021 6:00:00 AM 6.08 42.944 0.362 7.56 101.7 11.2
3/1/2021 6:15:00 AM 6.08 42.944 0.362 7.47 101.1 11.21
3/1/2021 6:30:00 AM 6.08 42.944 0.363 7.55 100.3 11.2
3/1/2021 6:45:00 AM 6.06 42.908 0.362 7.56 104 11.21
3/1/2021 7:00:00 AM 6.02 42.836 0.36 7.56 105.5 11.22
3/1/2021 7:15:00 AM 5.98 42.764 0.358 7.56 104.6 11.24
3/1/2021 7:30:00 AM 5.93 42.674 0.355 7.56 109.8 11.25
3/1/2021 7:45:00 AM 5.87 42.566 0.352 7.56 114.2 11.28
3/1/2021 8:00:00 AM 5.82 42.476 0.35 7.56 119.5 11.29
3/1/2021 8:15:00 AM 5.77 42.386 0.347 7.56 115.9 11.31
3/1/2021 8:30:00 AM 5.76 42.368 0.347 7.55 117.1 11.32
3/1/2021 8:45:00 AM 5.75 42.35 0.347 7.55 114.8 11.32
3/1/2021 9:00:00 AM 5.77 42.386 0.347 7.55 109.8 11.31
3/1/2021 9:15:00 AM 5.79 42.422 0.348 7.55 109 11.3
3/1/2021 9:30:00 AM 5.81 42.458 0.349 7.55 107.6 11.29
3/1/2021 9:45:00 AM 5.83 42.494 0.35 7.55 99.23 11.29
3/1/2021 10:00:00 AM 5.86 42.548 0.35 7.55 104.1 11.29
3/1/2021 10:15:00 AM 5.89 42.602 0.35 7.55 101.2 11.29
3/1/2021 10:30:00 AM 5.94 42.692 0.349 7.55 92.89 11.29
3/1/2021 10:45:00 AM 6 42.8 0.349 7.55 95.05 11.3
3/1/2021 11:00:00 AM 6.05 42.89 0.349 7.55 93.48 11.29
3/1/2021 11:15:00 AM 6.09 42.962 0.348 7.56 88.65 11.31
3/1/2021 11:30:00 AM 6.15 43.07 0.348 7.56 90 11.31
3/1/2021 11:45:00 AM 6.21 43.178 0.349 7.54 87.76 11.32
3/1/2021 12:00:00 PM 6.27 43.286 0.35 7.56 89.1 11.32
3/1/2021 12:15:00 PM 6.36 43.448 0.351 7.56 86.87 11.32
3/1/2021 12:30:00 PM 6.42 43.556 0.351 7.56 84.95 11.32
3/1/2021 12:45:00 PM 6.51 43.718 0.351 7.56 81.15 11.33
3/1/2021 1:00:00 PM 6.61 43.898 0.352 7.56 80.94 11.34
3/1/2021 1:15:00 PM 6.71 44.078 0.353 7.56 77.08 11.33
3/1/2021 1:30:00 PM 6.75 44.15 0.353 7.56 81.72 11.34
3/1/2021 1:45:00 PM 6.82 44.276 0.354 7.56 78.73 11.33
3/1/2021 2:00:00 PM 6.85 44.33 0.354 7.57 75.44 11.34
3/1/2021 2:15:00 PM 6.9 44.42 0.355 7.57 75.17 11.34
3/1/2021 2:30:00 PM 7.06 44.708 0.355 7.57 75.45 11.36
3/1/2021 2:45:00 PM 7.11 44.798 0.356 7.57 71.12 11.33
3/1/2021 3:00:00 PM 7.15 44.87 0.356 7.57 70.85 11.33
3/1/2021 3:15:00 PM 7.19 44.942 0.357 7.57 71.06 11.31
3/1/2021 3:30:00 PM 7.23 45.014 0.358 7.58 71 11.3
3/1/2021 3:45:00 PM 7.29 45.122 0.358 7.58 68.84 11.29
3/1/2021 4:00:00 PM 7.36 45.248 0.358 7.58 67.82 11.25
3/1/2021 4:15:00 PM 7.4 45.32 0.359 7.58 71.2 11.25
3/1/2021 4:30:00 PM 7.43 45.374 0.359 7.58 68.81 11.22
3/1/2021 4:45:00 PM 7.46 45.428 0.36 7.58 67.99 11.19
3/1/2021 5:00:00 PM 7.48 45.464 0.36 7.58 71.96 11.18
3/1/2021 5:15:00 PM 7.49 45.482 0.361 7.59 67.97 11.16
3/1/2021 5:30:00 PM 7.5 45.5 0.361 7.59 68.72 11.15
3/1/2021 5:45:00 PM 7.48 45.464 0.362 7.59 69.1 11.12
3/1/2021 6:00:00 PM 7.42 45.356 0.363 7.59 70.67 11.13
3/1/2021 6:15:00 PM 7.34 45.212 0.363 7.58 66.77 11.12
3/1/2021 6:30:00 PM 7.24 45.032 0.363 7.59 68.04 11.12
3/1/2021 6:45:00 PM 7.12 44.816 0.363 7.59 68.91 11.13
3/1/2021 7:00:00 PM 7.01 44.618 0.363 7.59 66.63 11.14
3/1/2021 7:15:00 PM 6.89 44.402 0.363 7.59 67.68 11.15
3/1/2021 7:30:00 PM 6.76 44.168 0.363 7.59 67.36 11.19
3/1/2021 7:45:00 PM 6.64 43.952 0.363 7.57 67.18 11.19
3/1/2021 8:00:00 PM 6.51 43.718 0.363 7.58 65.34 11.22
3/1/2021 8:15:00 PM 6.39 43.502 0.364 7.58 66.22 11.24
3/1/2021 8:30:00 PM 6.26 43.268 0.364 7.58 67.81 11.26
3/1/2021 8:45:00 PM 6.12 43.016 0.365 7.5 68.65 11.3
3/1/2021 9:00:00 PM 5.99 42.782 0.365 7.58 65.79 11.34
3/1/2021 9:15:00 PM 5.86 42.548 0.365 7.58 64.33 11.37
3/1/2021 9:30:00 PM 5.76 42.368 0.366 7.58 65.67 11.4
3/1/2021 9:45:00 PM 5.66 42.188 0.367 7.58 65.28 11.43
3/1/2021 10:00:00 PM 5.56 42.008 0.367 7.58 63.47 11.46
3/1/2021 10:15:00 PM 5.46 41.828 0.368 7.57 62.17 11.51
3/1/2021 10:30:00 PM 5.38 41.684 0.369 7.58 59.72 11.53
3/1/2021 10:45:00 PM 5.3 41.54 0.369 7.58 61.33 11.56
3/1/2021 11:00:00 PM 5.23 41.414 0.37 7.58 61.9 11.58
3/1/2021 11:15:00 PM 5.14 41.252 0.37 7.57 61.49 11.61
3/1/2021 11:30:00 PM 5.06 41.108 0.371 7.57 60.56 11.63
3/1/2021 11:45:00 PM 4.99 40.982 0.371 7.58 61 11.67
3/2/2021 12:00:00 AM 4.93 40.874 0.373 7.54 62.43 11.7
3/2/2021 12:15:00 AM 4.86 40.748 0.373 7.57 57.19 11.72
3/2/2021 12:30:00 AM 4.79 40.622 0.373 7.59 58.96 11.74
3/2/2021 12:45:00 AM 4.72 40.496 0.373 7.59 55.99 11.77
3/2/2021 1:00:00 AM 4.68 40.424 0.374 7.58 56.08 11.79
3/2/2021 1:15:00 AM 4.62 40.316 0.374 7.55 54.13 11.81
3/2/2021 1:30:00 AM 4.58 40.244 0.375 7.58 55.47 11.81
3/2/2021 1:45:00 AM 4.52 40.136 0.377 7.58 55.17 11.84
3/2/2021 2:00:00 AM 4.46 40.028 0.377 7.59 55.76 11.87
3/2/2021 2:15:00 AM 4.4 39.92 0.378 7.6 54.34 11.9
3/2/2021 2:30:00 AM 4.34 39.812 0.378 7.59 56.09 11.92
3/2/2021 2:45:00 AM 4.29 39.722 0.379 7.59 58.01 11.94
3/2/2021 3:00:00 AM 4.25 39.65 0.379 7.6 51.23 11.97
3/2/2021 3:15:00 AM 4.2 39.56 0.38 7.57 51.16 11.96
3/2/2021 3:30:00 AM 4.13 39.434 0.381 7.59 53.36 12
3/2/2021 3:45:00 AM 4.08 39.344 0.381 7.57 52.15 12.03
3/2/2021 4:00:00 AM 4.03 39.254 0.382 7.6 52.32 12.05
3/2/2021 4:15:00 AM 3.95 39.11 0.383 7.61 49.87 12.06
3/2/2021 4:30:00 AM 3.92 39.056 0.384 7.6 51.39 12.09
3/2/2021 4:45:00 AM 3.88 38.984 0.384 7.61 48.56 12.11
3/2/2021 5:00:00 AM 3.84 38.912 0.385 7.58 49 12.13
3/2/2021 5:15:00 AM 3.8 38.84 0.386 7.59 51.03 12.15
3/2/2021 5:30:00 AM 3.76 38.768 0.387 7.61 47.99 12.14
3/2/2021 5:45:00 AM 3.74 38.732 0.388 7.61 46.56 12.17
3/2/2021 6:00:00 AM 3.7 38.66 0.389 7.59 47.13 12.2
3/2/2021 6:15:00 AM 3.67 38.606 0.389 7.61 46.66 12.21
3/2/2021 6:30:00 AM 3.66 38.588 0.39 7.61 48.54 12.23
3/2/2021 6:45:00 AM 3.65 38.57 0.391 7.58 48.36 12.21
3/2/2021 7:00:00 AM 3.63 38.534 0.391 7.61 46.05 12.24
3/2/2021 7:15:00 AM 3.63 38.534 0.392 7.59 48.34 12.26
3/2/2021 7:30:00 AM 3.65 38.57 0.393 7.61 45.24 12.26
3/2/2021 7:45:00 AM 3.68 38.624 0.393 7.62 44.71 12.27
3/2/2021 8:00:00 AM 3.72 38.696 0.394 7.62 45.07 12.3
3/2/2021 8:15:00 AM 3.77 38.786 0.395 7.62 42.33 12.3
3/2/2021 8:30:00 AM 3.83 38.894 0.396 7.59 43.44 12.32
3/2/2021 8:45:00 AM 3.9 39.02 0.396 7.62 41.72 12.34
3/2/2021 9:00:00 AM 3.96 39.128 0.397 7.62 41.49 12.33
3/2/2021 9:15:00 AM 4.02 39.236 0.398 7.62 41.5 12.37
3/2/2021 9:30:00 AM 4.1 39.38 0.399 7.63 40.16 12.39
3/2/2021 9:45:00 AM 4.15 39.47 0.4 7.63 46.46 12.39
3/2/2021 10:00:00 AM 4.23 39.614 0.4 7.63 41.94 12.42
3/2/2021 10:15:00 AM 4.36 39.848 0.399 7.63 40.12 12.42
3/2/2021 10:30:00 AM 4.51 40.118 0.399 7.63 42.28 12.43
3/2/2021 10:45:00 AM 4.65 40.37 0.4 7.64 41.48 12.43
3/2/2021 11:00:00 AM 4.79 40.622 0.4 7.64 38.51 12.45
3/2/2021 11:15:00 AM 4.96 40.928 0.4 7.63 42.82 12.49
3/2/2021 11:30:00 AM 5.15 41.27 0.4 7.65 36.67 12.48
3/2/2021 11:45:00 AM 5.33 41.594 0.4 7.65 40.16 12.49
3/2/2021 12:00:00 PM 5.53 41.954 0.4 7.65 37.31 12.49
3/2/2021 12:15:00 PM 5.74 42.332 0.4 7.65 38 12.49
3/2/2021 12:30:00 PM 5.95 42.71 0.4 7.66 37.21 12.49
3/2/2021 12:45:00 PM 6.17 43.106 0.4 7.66 36.43 12.46
3/2/2021 1:00:00 PM 6.38 43.484 0.4 7.67 36.63 12.45
3/2/2021 1:15:00 PM 6.6 43.88 0.4 7.67 36.49 12.43
3/2/2021 1:30:00 PM 6.81 44.258 0.4 7.68 35.02 12.36
3/2/2021 1:45:00 PM 7.02 44.636 0.4 7.68 37.81 12.34
3/2/2021 2:00:00 PM 7.22 44.996 0.4 7.68 35.37 12.28
3/2/2021 2:15:00 PM 7.41 45.338 0.4 7.68 36.7 12.24
3/2/2021 2:30:00 PM 7.58 45.644 0.4 7.68 37.88 12.17
3/2/2021 2:45:00 PM 7.74 45.932 0.4 7.68 39.49 12.11
3/2/2021 3:00:00 PM 7.89 46.202 0.4 7.68 37.47 12.06
3/2/2021 3:15:00 PM 8.03 46.454 0.4 7.68 39.16 11.98
3/2/2021 3:30:00 PM 8.16 46.688 0.4 7.68 37.14 11.9
3/2/2021 3:45:00 PM 8.27 46.886 0.399 7.68 39.2 11.84
3/2/2021 4:00:00 PM 8.34 47.012 0.398 7.68 37.27 11.76
3/2/2021 4:15:00 PM 8.39 47.102 0.398 7.63 37.63 11.7
3/2/2021 4:30:00 PM 8.42 47.156 0.398 7.68 39.17 11.64
3/2/2021 4:45:00 PM 8.43 47.174 0.398 7.68 39.29 11.56
3/2/2021 5:00:00 PM 8.43 47.174 0.398 7.67 41.33 11.49
3/2/2021 5:15:00 PM 8.41 47.138 0.399 7.66 38.23 11.44
3/2/2021 5:30:00 PM 8.38 47.084 0.399 7.63 41.51 11.37
3/2/2021 5:45:00 PM 8.34 47.012 0.4 7.67 47.05 11.33
3/2/2021 6:00:00 PM 8.29 46.922 0.4 7.66 42.06 11.29
3/2/2021 6:15:00 PM 8.22 46.796 0.401 7.64 40.64 11.26
3/2/2021 6:30:00 PM 8.15 46.67 0.401 7.62 40.76 11.24
3/2/2021 6:45:00 PM 8.06 46.508 0.401 7.61 41.42 11.2
3/2/2021 7:00:00 PM 7.98 46.364 0.402 7.65 42.9 11.18
3/2/2021 7:15:00 PM 7.88 46.184 0.402 7.61 41.38 11.17
3/2/2021 7:30:00 PM 7.78 46.004 0.403 7.65 44.32 11.16
3/2/2021 7:45:00 PM 7.66 45.788 0.404 7.65 42.91 11.14
3/2/2021 8:00:00 PM 7.53 45.554 0.404 7.64 41.99 11.15
3/2/2021 8:15:00 PM 7.41 45.338 0.405 7.63 43.59 11.15
3/2/2021 8:30:00 PM 7.27 45.086 0.405 7.64 42.67 11.16
3/2/2021 8:45:00 PM 7.14 44.852 0.406 7.63 42.12 11.16
3/2/2021 9:00:00 PM 7.01 44.618 0.406 7.63 44.65 11.19
3/2/2021 9:15:00 PM 6.88 44.384 0.407 7.61 43.33 11.18
3/2/2021 9:30:00 PM 6.77 44.186 0.408 7.62 44.78 11.23
3/2/2021 9:45:00 PM 6.64 43.952 0.408 7.62 44.79 11.23
3/2/2021 10:00:00 PM 6.53 43.754 0.409 7.62 42.99 11.26
3/2/2021 10:15:00 PM 6.43 43.574 0.409 7.59 44.04 11.28
3/2/2021 10:30:00 PM 6.32 43.376 0.41 7.59 47.96 11.31
3/2/2021 10:45:00 PM 6.22 43.196 0.41 7.6 42.69 11.32
3/2/2021 11:00:00 PM 6.14 43.052 0.411 7.62 43.24 11.36
3/2/2021 11:15:00 PM 6.06 42.908 0.411 7.62 44.18 11.37
3/2/2021 11:30:00 PM 5.99 42.782 0.411 7.61 43.29 11.39
3/2/2021 11:45:00 PM 5.93 42.674 0.412 7.62 42.33 11.41
3/3/2021 12:00:00 AM 5.87 42.566 0.412 7.62 41.98 11.43
3/3/2021 12:15:00 AM 5.81 42.458 0.413 7.59 42.3 11.44
3/3/2021 12:30:00 AM 5.76 42.368 0.413 7.62 39.68 11.47
3/3/2021 12:45:00 AM 5.72 42.296 0.413 7.58 42.98 11.48
3/3/2021 1:00:00 AM 5.67 42.206 0.414 7.61 40.18 11.49
3/3/2021 1:15:00 AM 5.64 42.152 0.414 7.59 39.68 11.49
3/3/2021 1:30:00 AM 5.61 42.098 0.415 7.62 43.85 11.5
3/3/2021 1:45:00 AM 5.57 42.026 0.415 7.62 40.15 11.5
3/3/2021 2:00:00 AM 5.55 41.99 0.415 7.59 38.34 11.53
3/3/2021 2:15:00 AM 5.52 41.936 0.416 7.61 41.77 11.54
3/3/2021 2:30:00 AM 5.5 41.9 0.416 7.63 40.92 11.53
3/3/2021 2:45:00 AM 5.48 41.864 0.416 7.63 39.85 11.55
3/3/2021 3:00:00 AM 5.46 41.828 0.417 7.6 41.81 11.56
3/3/2021 3:15:00 AM 5.44 41.792 0.417 7.62 39.25 11.57
3/3/2021 3:30:00 AM 5.42 41.756 0.418 7.62 36.52 11.56
3/3/2021 3:45:00 AM 5.4 41.72 0.418 7.6 39.63 11.56
3/3/2021 4:00:00 AM 5.39 41.702 0.418 7.63 40.37 11.57
3/3/2021 4:15:00 AM 5.37 41.666 0.419 7.63 38.89 11.57
3/3/2021 4:30:00 AM 5.36 41.648 0.419 7.63 40.42 11.57
3/3/2021 4:45:00 AM 5.34 41.612 0.419 7.64 37.4 11.58
3/3/2021 5:00:00 AM 5.33 41.594 0.419 7.63 42.8 11.57
3/3/2021 5:15:00 AM 5.31 41.558 0.42 7.63 37.92 11.6
3/3/2021 5:30:00 AM 5.3 41.54 0.42 7.61 38.84 11.59
3/3/2021 5:45:00 AM 5.28 41.504 0.42 7.63 36.8 11.61
3/3/2021 6:00:00 AM 5.26 41.468 0.42 7.61 36.79 11.6
3/3/2021 6:15:00 AM 5.24 41.432 0.42 7.64 38.47 11.61
3/3/2021 6:30:00 AM 5.23 41.414 0.421 7.64 35.85 11.6
3/3/2021 6:45:00 AM 5.22 41.396 0.421 7.64 37.88 11.62
3/3/2021 7:00:00 AM 5.22 41.396 0.421 7.64 37.09 11.63
3/3/2021 7:15:00 AM 5.23 41.414 0.421 7.64 34.77 11.63
3/3/2021 7:30:00 AM 5.23 41.414 0.422 7.64 40.06 11.64
3/3/2021 7:45:00 AM 5.25 41.45 0.422 7.63 36.94 11.66
3/3/2021 8:00:00 AM 5.28 41.504 0.422 7.64 35.16 11.68
3/3/2021 8:15:00 AM 5.32 41.576 0.423 7.65 34.52 11.7
3/3/2021 8:30:00 AM 5.37 41.666 0.423 7.63 32.85 11.73
3/3/2021 8:45:00 AM 5.43 41.774 0.424 7.62 33.64 11.76
3/3/2021 9:00:00 AM 5.5 41.9 0.424 7.65 33.4 11.79
3/3/2021 9:15:00 AM 5.58 42.044 0.424 7.65 33.36 11.83
3/3/2021 9:30:00 AM 5.66 42.188 0.424 7.66 31.36 11.85
3/3/2021 9:45:00 AM 5.76 42.368 0.424 7.66 33.81 11.9
3/3/2021 10:00:00 AM 5.87 42.566 0.425 7.66 31.19 11.93
3/3/2021 10:15:00 AM 6 42.8 0.425 7.67 31.57 11.95
3/3/2021 10:30:00 AM 6.14 43.052 0.425 7.67 32.35 12
3/3/2021 10:45:00 AM 6.3 43.34 0.426 7.67 31.12 12.02
3/3/2021 11:00:00 AM 6.46 43.628 0.426 7.68 32.13 12.06
3/3/2021 11:15:00 AM 6.63 43.934 0.426 7.69 32.44 12.08
3/3/2021 11:30:00 AM 6.81 44.258 0.426 7.67 30.32 12.1
3/3/2021 11:45:00 AM 7.01 44.618 0.426 7.7 31 12.12
3/3/2021 12:00:00 PM 7.22 44.996 0.427 7.7 28.74 12.11
3/3/2021 12:15:00 PM 7.43 45.374 0.427 7.7 31.03 12.11
3/3/2021 12:30:00 PM 7.65 45.77 0.427 7.7 29.93 12.12
3/3/2021 12:45:00 PM 7.87 46.166 0.426 7.7 29.95 12.12
3/3/2021 1:00:00 PM 8.09 46.562 0.427 7.71 27.41 12.08
3/3/2021 1:15:00 PM 8.31 46.958 0.427 7.71 28.82 12.07
3/3/2021 1:30:00 PM 8.53 47.354 0.427 7.72 30.23 12.04
3/3/2021 1:45:00 PM 8.75 47.75 0.427 7.68 30.94 11.99
3/3/2021 2:00:00 PM 8.95 48.11 0.426 7.71 28.42 11.94
3/3/2021 2:15:00 PM 9.15 48.47 0.426 7.72 31.37 11.9
3/3/2021 2:30:00 PM 9.34 48.812 0.426 7.69 33.2 11.84
3/3/2021 2:45:00 PM 9.52 49.136 0.425 7.72 29.71 11.75
3/3/2021 3:00:00 PM 9.68 49.424 0.425 7.72 28.89 11.7
3/3/2021 3:15:00 PM 9.84 49.712 0.425 7.72 31.97 11.62
3/3/2021 3:30:00 PM 9.97 49.946 0.425 7.72 34.19 11.56
3/3/2021 3:45:00 PM 10.09 50.162 0.427 7.72 31.02 11.47
3/3/2021 4:00:00 PM 10.18 50.324 0.427 7.72 30.57 11.37
3/3/2021 4:15:00 PM 10.25 50.45 0.427 7.72 33.52 11.29
3/3/2021 4:30:00 PM 10.3 50.54 0.426 7.72 32.09 11.21
3/3/2021 4:45:00 PM 10.34 50.612 0.425 7.68 33.71 11.12
3/3/2021 5:00:00 PM 10.36 50.648 0.425 7.71 31.85 11.04
3/3/2021 5:15:00 PM 10.37 50.666 0.426 7.66 33.19 10.95
3/3/2021 5:30:00 PM 10.36 50.648 0.427 7.7 33.39 10.88
3/3/2021 5:45:00 PM 10.34 50.612 0.427 7.7 35.14 10.81
3/3/2021 6:00:00 PM 10.3 50.54 0.426 7.63 35.71 10.74
3/3/2021 6:15:00 PM 10.23 50.414 0.425 7.7 36.64 10.69
3/3/2021 6:30:00 PM 10.16 50.288 0.425 7.69 43.68 10.64
3/3/2021 6:45:00 PM 10.08 50.144 0.424 7.68 37.55 10.57
3/3/2021 7:00:00 PM 9.98 49.964 0.424 7.68 37.11 10.58
3/3/2021 7:15:00 PM 9.89 49.802 0.424 7.68 38.14 10.54
3/3/2021 7:30:00 PM 9.78 49.604 0.424 7.68 39.35 10.52
3/3/2021 7:45:00 PM 9.66 49.388 0.424 7.67 39.86 10.51
3/3/2021 8:00:00 PM 9.54 49.172 0.424 7.67 36.19 10.5
3/3/2021 8:15:00 PM 9.41 48.938 0.424 7.67 37.72 10.49
3/3/2021 8:30:00 PM 9.28 48.704 0.424 7.67 39.71 10.49
3/3/2021 8:45:00 PM 9.15 48.47 0.424 7.67 39.21 10.48
3/3/2021 9:00:00 PM 9.02 48.236 0.424 7.66 38.82 10.5
3/3/2021 9:15:00 PM 8.89 48.002 0.424 7.66 43.08 10.53
3/3/2021 9:30:00 PM 8.74 47.732 0.424 7.66 52.06 10.54
3/3/2021 9:45:00 PM 8.59 47.462 0.424 7.66 40.07 10.55
3/3/2021 10:00:00 PM 8.47 47.246 0.424 7.65 41.51 10.58
3/3/2021 10:15:00 PM 8.35 47.03 0.424 7.65 44.07 10.61
3/3/2021 10:30:00 PM 8.25 46.85 0.424 7.63 40.32 10.63
3/3/2021 10:45:00 PM 8.14 46.652 0.424 7.65 38.73 10.66
3/3/2021 11:00:00 PM 8.02 46.436 0.424 7.65 41.27 10.69
3/3/2021 11:15:00 PM 7.91 46.238 0.423 7.63 36.91 10.72
3/3/2021 11:30:00 PM 7.81 46.058 0.423 7.65 39.76 10.75
3/3/2021 11:45:00 PM 7.71 45.878 0.424 7.65 38.02 10.76
3/4/2021 12:00:00 AM 7.62 45.716 0.424 7.64 50.83 10.78
3/4/2021 12:15:00 AM 7.54 45.572 0.423 7.64 38.31 10.82
3/4/2021 12:30:00 AM 7.47 45.446 0.424 7.64 36.56 10.84
3/4/2021 12:45:00 AM 7.41 45.338 0.424 7.65 39.13 10.84
3/4/2021 1:00:00 AM 7.35 45.23 0.424 7.65 37.28 10.85
3/4/2021 1:15:00 AM 7.29 45.122 0.424 7.56 37.68 10.88
3/4/2021 1:30:00 AM 7.24 45.032 0.424 7.65 39.3 10.9
3/4/2021 1:45:00 AM 7.2 44.96 0.424 7.62 35.59 10.92
3/4/2021 2:00:00 AM 7.14 44.852 0.424 7.65 38.76 10.94
3/4/2021 2:15:00 AM 7.1 44.78 0.423 7.65 38.25 10.93
3/4/2021 2:30:00 AM 7.06 44.708 0.424 7.65 35.99 10.95
3/4/2021 2:45:00 AM 7.02 44.636 0.424 7.65 38.08 10.97
3/4/2021 3:00:00 AM 6.99 44.582 0.424 7.65 38.48 10.98
3/4/2021 3:15:00 AM 6.95 44.51 0.424 7.65 36.09 11
3/4/2021 3:30:00 AM 6.91 44.438 0.424 7.65 34.73 11.01
3/4/2021 3:45:00 AM 6.87 44.366 0.424 7.65 35.5 11.02
3/4/2021 4:00:00 AM 6.83 44.294 0.424 7.65 37.14 11.04
3/4/2021 4:15:00 AM 6.79 44.222 0.424 7.65 38.18 11.04
3/4/2021 4:30:00 AM 6.76 44.168 0.424 7.65 36.34 11.06
3/4/2021 4:45:00 AM 6.73 44.114 0.424 7.65 38.4 11.06
3/4/2021 5:00:00 AM 6.7 44.06 0.424 7.65 36.07 11.08
3/4/2021 5:15:00 AM 6.67 44.006 0.425 7.65 36.45 11.1
3/4/2021 5:30:00 AM 6.64 43.952 0.424 7.65 36.14 11.1
3/4/2021 5:45:00 AM 6.61 43.898 0.425 7.66 38.99 11.13
3/4/2021 6:00:00 AM 6.59 43.862 0.425 7.66 38.2 11.14
3/4/2021 6:15:00 AM 6.57 43.826 0.425 7.65 36.81 11.15
3/4/2021 6:30:00 AM 6.55 43.79 0.424 7.66 33.21 11.15
3/4/2021 6:45:00 AM 6.53 43.754 0.424 7.66 35.66 11.17
3/4/2021 7:00:00 AM 6.51 43.718 0.424 7.66 34.41 11.19
3/4/2021 7:15:00 AM 6.5 43.7 0.425 7.66 36.43 11.2
3/4/2021 7:30:00 AM 6.5 43.7 0.425 7.66 34.03 11.22
3/4/2021 7:45:00 AM 6.5 43.7 0.426 7.66 33.35 11.26
3/4/2021 8:00:00 AM 6.51 43.718 0.426 7.66 36.73 11.29
3/4/2021 8:15:00 AM 6.53 43.754 0.426 7.67 32.7 11.32
3/4/2021 8:30:00 AM 6.55 43.79 0.426 7.67 32.74 11.35
3/4/2021 8:45:00 AM 6.55 43.79 0.426 7.67 32.92 11.39
3/4/2021 9:00:00 AM 6.58 43.844 0.426 7.67 33.38 11.44
3/4/2021 9:15:00 AM 6.59 43.862 0.426 7.67 30.18 11.48
3/4/2021 9:30:00 AM 6.61 43.898 0.426 7.68 30.03 11.51
3/4/2021 9:45:00 AM 6.64 43.952 0.427 7.68 30.38 11.51
3/4/2021 10:00:00 AM 6.67 44.006 0.427 7.68 29.3 11.56
3/4/2021 10:15:00 AM 6.7 44.06 0.427 7.69 34.04 11.6
3/4/2021 10:30:00 AM 6.73 44.114 0.427 7.69 33.43 11.61
3/4/2021 10:45:00 AM 6.76 44.168 0.427 7.68 28.67 11.65
3/4/2021 11:00:00 AM 6.81 44.258 0.427 7.69 27.42 11.69
3/4/2021 11:15:00 AM 6.85 44.33 0.428 7.7 29.11 11.71
3/4/2021 11:30:00 AM 6.9 44.42 0.427 7.69 28.95 11.73
3/4/2021 11:45:00 AM 6.97 44.546 0.428 7.71 31.66 11.81
3/4/2021 12:00:00 PM 7.03 44.654 0.428 7.71 28.34 11.85
3/4/2021 12:15:00 PM 7.1 44.78 0.428 7.72 29.52 11.88
3/4/2021 12:30:00 PM 7.17 44.906 0.428 7.72 29.91 11.93
3/4/2021 12:45:00 PM 7.28 45.104 0.427 7.72 28.79 11.97
3/4/2021 1:00:00 PM 7.38 45.284 0.428 7.73 26.12 11.98
3/4/2021 1:15:00 PM 7.51 45.518 0.428 7.73 28.46 12.01
3/4/2021 1:30:00 PM 7.64 45.752 0.428 7.72 29.48 12.01
3/4/2021 1:45:00 PM 7.76 45.968 0.428 7.73 27.63 12
3/4/2021 2:00:00 PM 7.85 46.13 0.428 7.74 27.1 11.96
3/4/2021 2:15:00 PM 7.94 46.292 0.429 7.75 31.74 11.96
3/4/2021 2:30:00 PM 8.04 46.472 0.429 7.75 30.33 11.88
3/4/2021 2:45:00 PM 8.11 46.598 0.429 7.75 28.84 11.81
3/4/2021 3:00:00 PM 8.13 46.634 0.429 7.75 27.27 11.76
3/4/2021 3:15:00 PM 8.16 46.688 0.429 7.75 29.34 11.73
3/4/2021 3:30:00 PM 8.17 46.706 0.429 7.75 33.07 11.65
3/4/2021 3:45:00 PM 8.16 46.688 0.429 7.72 26.69 11.62
3/4/2021 4:00:00 PM 8.16 46.688 0.429 7.75 29.12 11.62
3/4/2021 4:15:00 PM 8.12 46.616 0.429 7.74 29.55 11.57
3/4/2021 4:30:00 PM 8.09 46.562 0.43 7.74 31.81 11.54
3/4/2021 4:45:00 PM 8.06 46.508 0.43 7.73 27.25 11.51
3/4/2021 5:00:00 PM 8.02 46.436 0.43 7.74 32.67 11.49
3/4/2021 5:15:00 PM 7.98 46.364 0.43 7.75 30.95 11.47
3/4/2021 5:30:00 PM 7.93 46.274 0.43 7.74 30.35 11.44
3/4/2021 5:45:00 PM 7.85 46.13 0.43 7.74 30 11.42
3/4/2021 6:00:00 PM 7.78 46.004 0.43 7.74 32.16 11.38
3/4/2021 6:15:00 PM 7.69 45.842 0.43 7.74 32.66 11.35
3/4/2021 6:30:00 PM 7.62 45.716 0.43 7.74 33.68 11.33
3/4/2021 6:45:00 PM 7.52 45.536 0.431 7.73 32.32 11.31
3/4/2021 7:00:00 PM 7.42 45.356 0.428 7.73 31.95 11.32
3/4/2021 7:15:00 PM 7.32 45.176 0.431 7.73 32.18 11.3
3/4/2021 7:30:00 PM 7.21 44.978 0.432 7.73 35.17 11.29
3/4/2021 7:45:00 PM 7.1 44.78 0.432 7.73 86.57 11.28
3/4/2021 8:00:00 PM 7 44.6 0.432 7.72 32.46 11.28
3/4/2021 8:15:00 PM 6.88 44.384 0.431 7.72 39.4 11.28
3/4/2021 8:30:00 PM 6.78 44.204 0.432 7.72 32.79 11.29
3/4/2021 8:45:00 PM 6.66 43.988 0.432 7.72 36.68 11.28
3/4/2021 9:00:00 PM 6.57 43.826 0.432 7.71 32.8 11.29
3/4/2021 9:15:00 PM 6.48 43.664 0.433 7.71 35.62 11.3
3/4/2021 9:30:00 PM 6.36 43.448 0.433 7.71 32.86 11.32
3/4/2021 9:45:00 PM 6.26 43.268 0.433 7.72 35.26 11.35
3/4/2021 10:00:00 PM 6.16 43.088 0.433 7.71 37.51 11.34
3/4/2021 10:15:00 PM 6.03 42.854 0.433 7.71 36.72 11.39
3/4/2021 10:30:00 PM 5.93 42.674 0.434 7.71 38.63 11.42
3/4/2021 10:45:00 PM 5.83 42.494 0.434 7.71 34.81 11.43
3/4/2021 11:00:00 PM 5.73 42.314 0.434 7.71 34.19 11.47
3/4/2021 11:15:00 PM 5.63 42.134 0.434 7.71 36.08 11.49
3/4/2021 11:30:00 PM 5.52 41.936 0.434 7.71 36.46 11.52
3/4/2021 11:45:00 PM 5.42 41.756 0.434 7.71 33.22 11.56
3/5/2021 12:00:00 AM 5.31 41.558 0.434 7.71 34.08 11.6
3/5/2021 12:15:00 AM 5.22 41.396 0.434 7.71 36.09 11.63
3/5/2021 12:30:00 AM 5.14 41.252 0.434 7.71 34.96 11.65
3/5/2021 12:45:00 AM 5.06 41.108 0.435 7.71 32.09 11.68
3/5/2021 1:00:00 AM 4.99 40.982 0.435 7.71 35.9 11.71
3/5/2021 1:15:00 AM 4.93 40.874 0.435 7.71 33.34 11.71
3/5/2021 1:30:00 AM 4.85 40.73 0.435 7.71 31.56 11.76
3/5/2021 1:45:00 AM 4.8 40.64 0.435 7.71 33.75 11.76
3/5/2021 2:00:00 AM 4.75 40.55 0.435 7.71 33.8 11.8
3/5/2021 2:15:00 AM 4.71 40.478 0.435 7.71 36.73 11.82
3/5/2021 2:30:00 AM 4.68 40.424 0.436 7.71 32.51 11.82
3/5/2021 2:45:00 AM 4.64 40.352 0.436 7.71 33.38 11.84
3/5/2021 3:00:00 AM 4.6 40.28 0.436 7.71 37.69 11.87
3/5/2021 3:15:00 AM 4.56 40.208 0.436 7.71 31.77 11.88
3/5/2021 3:30:00 AM 4.53 40.154 0.436 7.71 33.19 11.87
3/5/2021 3:45:00 AM 4.48 40.064 0.436 7.72 37.61 11.91
3/5/2021 4:00:00 AM 4.44 39.992 0.437 7.72 33.69 11.92
3/5/2021 4:15:00 AM 4.41 39.938 0.436 7.72 33.26 11.94
3/5/2021 4:30:00 AM 4.38 39.884 0.437 7.72 31.96 11.96
3/5/2021 4:45:00 AM 4.35 39.83 0.437 7.72 30.72 11.97
3/5/2021 5:00:00 AM 4.31 39.758 0.437 7.72 32.43 11.99
3/5/2021 5:15:00 AM 4.27 39.686 0.437 7.72 36.45 12
3/5/2021 5:30:00 AM 4.23 39.614 0.438 7.72 32.87 12.01
3/5/2021 5:45:00 AM 4.2 39.56 0.438 7.72 37.66 12.01
3/5/2021 6:00:00 AM 4.17 39.506 0.438 7.72 34.94 12.01
3/5/2021 6:15:00 AM 4.14 39.452 0.438 7.72 29.54 12.03
3/5/2021 6:30:00 AM 4.11 39.398 0.438 7.72 30.98 12.06
3/5/2021 6:45:00 AM 4.09 39.362 0.438 7.72 33.36 12.07
3/5/2021 7:00:00 AM 4.06 39.308 0.438 7.72 30.84 12.11
3/5/2021 7:15:00 AM 4.02 39.236 0.439 7.73 30.84 12.14
3/5/2021 7:30:00 AM 4 39.2 0.439 7.73 33.46 12.16
3/5/2021 7:45:00 AM 3.99 39.182 0.439 7.73 29.99 12.2
3/5/2021 8:00:00 AM 4 39.2 0.439 7.73 33.09 12.24
3/5/2021 8:15:00 AM 4.02 39.236 0.439 7.74 26.7 12.28
3/5/2021 8:30:00 AM 4.06 39.308 0.44 7.74 28.99 12.35
3/5/2021 8:45:00 AM 4.09 39.362 0.44 7.74 28.64 12.39
3/5/2021 9:00:00 AM 4.1 39.38 0.44 7.75 29.14 12.42
3/5/2021 9:15:00 AM 4.14 39.452 0.44 7.75 30.85 12.46
3/5/2021 9:30:00 AM 4.15 39.47 0.441 7.75 28.96 12.49
3/5/2021 9:45:00 AM 4.2 39.56 0.441 7.75 36.18 12.52
3/5/2021 10:00:00 AM 4.23 39.614 0.441 7.75 30.32 12.57
3/5/2021 10:15:00 AM 4.32 39.776 0.441 7.76 28.76 12.59
3/5/2021 10:30:00 AM 4.47 40.046 0.441 7.76 31.04 12.63
3/5/2021 10:45:00 AM 4.59 40.262 0.441 7.76 29.31 12.66
3/5/2021 11:00:00 AM 4.74 40.532 0.441 7.76 31.6 12.7
3/5/2021 11:15:00 AM 4.85 40.73 0.442 7.77 46.56 12.63
3/5/2021 11:30:00 AM 5.06 41.108 0.443 7.77 35.5 12.7
3/5/2021 11:45:00 AM 5.24 41.432 0.443 7.77 34.69 12.77
3/5/2021 12:00:00 PM 5.4 41.72 0.442 7.78 30.7 12.77
3/5/2021 12:15:00 PM 5.61 42.098 0.441 7.78 39.45 12.79
3/5/2021 12:30:00 PM 5.81 42.458 0.441 7.79 27.76 12.79
3/5/2021 12:45:00 PM 6.01 42.818 0.44 7.79 31.74 12.81
3/5/2021 1:00:00 PM 6.16 43.088 0.44 7.78 28.58 12.8
3/5/2021 1:15:00 PM 6.32 43.376 0.44 7.8 30.09 12.78
3/5/2021 1:30:00 PM 6.55 43.79 0.439 7.8 33.43 12.78
3/5/2021 1:45:00 PM 6.76 44.168 0.439 7.8 27.78 12.77
3/5/2021 2:00:00 PM 6.93 44.474 0.439 7.81 26.92 12.73
3/5/2021 2:15:00 PM 7.15 44.87 0.438 7.81 27.6 12.73
3/5/2021 2:30:00 PM 7.33 45.194 0.438 7.81 29.47 12.68
3/5/2021 2:45:00 PM 7.5 45.5 0.437 7.81 28.2 12.63
3/5/2021 3:00:00 PM 7.65 45.77 0.436 7.82 27.37 12.57
3/5/2021 3:15:00 PM 7.79 46.022 0.438 7.81 27.94 12.51
3/5/2021 3:30:00 PM 7.93 46.274 0.437 7.82 28.85 12.44
3/5/2021 3:45:00 PM 8.07 46.526 0.437 7.83 28.83 12.4
3/5/2021 4:00:00 PM 8.16 46.688 0.437 7.82 28.7 12.3
3/5/2021 4:15:00 PM 8.23 46.814 0.437 7.82 28.16 12.23
3/5/2021 4:30:00 PM 8.26 46.868 0.437 7.82 30.02 12.13
3/5/2021 4:45:00 PM 8.28 46.904 0.437 7.82 33.21 12.06
3/5/2021 5:00:00 PM 8.28 46.904 0.437 7.82 29.58 11.97
3/5/2021 5:15:00 PM 8.28 46.904 0.437 7.82 26.51 11.86
3/5/2021 5:30:00 PM 8.26 46.868 0.437 7.82 28.82 11.77
3/5/2021 5:45:00 PM 8.22 46.796 0.436 7.81 28.93 11.67
3/5/2021 6:00:00 PM 8.17 46.706 0.437 7.81 30.15 11.57
3/5/2021 6:15:00 PM 8.1 46.58 0.437 7.81 28.68 11.51
3/5/2021 6:30:00 PM 8.01 46.418 0.437 7.8 30.49 11.44
3/5/2021 6:45:00 PM 7.91 46.238 0.437 7.8 32.9 11.4
3/5/2021 7:00:00 PM 7.82 46.076 0.437 7.8 37.82 11.36
3/5/2021 7:15:00 PM 7.7 45.86 0.437 7.79 34.28 11.34
3/5/2021 7:30:00 PM 7.58 45.644 0.437 7.79 38.16 11.31
3/5/2021 7:45:00 PM 7.46 45.428 0.437 7.77 39.13 11.3
3/5/2021 8:00:00 PM 7.32 45.176 0.438 7.78 39.96 11.29
3/5/2021 8:15:00 PM 7.18 44.924 0.439 7.77 38.24 11.28
3/5/2021 8:30:00 PM 7.03 44.654 0.439 7.77 32.84 11.29
3/5/2021 8:45:00 PM 6.89 44.402 0.439 7.77 33.88 11.3
3/5/2021 9:00:00 PM 6.76 44.168 0.439 7.77 35.39 11.31
3/5/2021 9:15:00 PM 6.65 43.97 0.439 7.76 34.88 11.32
3/5/2021 9:30:00 PM 6.52 43.736 0.44 7.76 38.57 11.34
3/5/2021 9:45:00 PM 6.4 43.52 0.44 7.75 35.35 11.35
3/5/2021 10:00:00 PM 6.28 43.304 0.44 7.75 35.66 11.37
3/5/2021 10:15:00 PM 6.18 43.124 0.441 7.75 33.21 11.39
3/5/2021 10:30:00 PM 6.07 42.926 0.442 7.74 34.33 11.41
3/5/2021 10:45:00 PM 5.96 42.728 0.442 7.74 36.94 11.44
3/5/2021 11:00:00 PM 5.86 42.548 0.442 7.74 36.29 11.47
3/5/2021 11:15:00 PM 5.75 42.35 0.442 7.74 37.05 11.48
3/5/2021 11:30:00 PM 5.64 42.152 0.443 7.74 36.25 11.51
3/5/2021 11:45:00 PM 5.55 41.99 0.443 7.74 36.5 11.53
3/6/2021 12:00:00 AM 5.46 41.828 0.443 7.73 35.31 11.58
3/6/2021 12:15:00 AM 5.37 41.666 0.444 7.73 34.26 11.6
3/6/2021 12:30:00 AM 5.29 41.522 0.444 7.71 32.4 11.63
3/6/2021 12:45:00 AM 5.22 41.396 0.444 7.73 42.44 11.66
3/6/2021 1:00:00 AM 5.15 41.27 0.444 7.73 47.53 11.67
3/6/2021 1:15:00 AM 5.09 41.162 0.444 7.68 36.49 11.68
3/6/2021 1:30:00 AM 5.04 41.072 0.444 7.73 34.81 11.71
3/6/2021 1:45:00 AM 4.99 40.982 0.445 7.73 38.05 11.74
3/6/2021 2:00:00 AM 4.96 40.928 0.445 7.7 34.61 11.75
3/6/2021 2:15:00 AM 4.93 40.874 0.444 7.73 35.79 11.77
3/6/2021 2:30:00 AM 4.9 40.82 0.445 7.73 31.63 11.78
3/6/2021 2:45:00 AM 4.86 40.748 0.445 7.73 35.26 11.79
3/6/2021 3:00:00 AM 4.83 40.694 0.445 7.72 37.87 11.79
3/6/2021 3:15:00 AM 4.81 40.658 0.445 7.73 40.11 11.81
3/6/2021 3:30:00 AM 4.8 40.64 0.445 7.73 38.97 11.82
3/6/2021 3:45:00 AM 4.78 40.604 0.445 7.73 41.18 11.82
3/6/2021 4:00:00 AM 4.77 40.586 0.445 7.73 34.02 11.81
3/6/2021 4:15:00 AM 4.76 40.568 0.446 7.73 33.87 11.82
3/6/2021 4:30:00 AM 4.75 40.55 0.446 7.73 37.29 11.81
3/6/2021 4:45:00 AM 4.74 40.532 0.446 7.73 37.66 11.83
3/6/2021 5:00:00 AM 4.73 40.514 0.446 7.73 37.84 11.82
3/6/2021 5:15:00 AM 4.72 40.496 0.446 7.74 44.58 11.84
3/6/2021 5:30:00 AM 4.71 40.478 0.446 7.73 40.1 11.85
3/6/2021 5:45:00 AM 4.69 40.442 0.446 7.74 30.26 11.85
3/6/2021 6:00:00 AM 4.68 40.424 0.447 7.73 34.62 11.86
3/6/2021 6:15:00 AM 4.67 40.406 0.446 7.73 36.15 11.87
3/6/2021 6:30:00 AM 4.66 40.388 0.446 7.73 34.83 11.87
3/6/2021 6:45:00 AM 4.66 40.388 0.446 7.73 33.61 11.88
3/6/2021 7:00:00 AM 4.67 40.406 0.446 7.74 34.11 11.87
3/6/2021 7:15:00 AM 4.7 40.46 0.446 7.73 38.75 11.89
3/6/2021 7:30:00 AM 4.72 40.496 0.446 7.74 36.95 11.91
3/6/2021 7:45:00 AM 4.74 40.532 0.446 7.7 42.03 11.92
3/6/2021 8:00:00 AM 4.76 40.568 0.446 7.73 35.21 11.97
3/6/2021 8:15:00 AM 4.78 40.604 0.446 7.72 42.75 11.99
3/6/2021 8:30:00 AM 4.82 40.676 0.446 7.74 32.16 12.06
3/6/2021 8:45:00 AM 4.86 40.748 0.447 7.75 28.64 12.1
3/6/2021 9:00:00 AM 4.9 40.82 0.447 7.75 34.83 12.15
3/6/2021 9:15:00 AM 4.93 40.874 0.446 7.75 34.33 12.19
3/6/2021 9:30:00 AM 4.98 40.964 0.447 7.75 36.44 12.24
3/6/2021 9:45:00 AM 5.02 41.036 0.447 7.76 36.77 12.27
3/6/2021 10:00:00 AM 5.08 41.144 0.447 7.76 38.21 12.3
3/6/2021 10:15:00 AM 5.13 41.234 0.448 7.77 28.44 12.34
3/6/2021 10:30:00 AM 5.16 41.288 0.448 7.77 34.67 12.32
3/6/2021 10:45:00 AM 5.19 41.342 0.448 7.77 29.74 12.34
3/6/2021 11:00:00 AM 5.22 41.396 0.448 7.77 39.23 12.36
3/6/2021 11:15:00 AM 5.27 41.486 0.448 7.77 36.74 12.42
3/6/2021 11:30:00 AM 5.33 41.594 0.448 7.76 31.98 12.46
3/6/2021 11:45:00 AM 5.39 41.702 0.448 7.78 27.12 12.48
3/6/2021 12:00:00 PM 5.42 41.756 0.448 7.78 38.7 12.47
3/6/2021 12:15:00 PM 5.48 41.864 0.448 7.79 34.69 12.5
3/6/2021 12:30:00 PM 5.56 42.008 0.448 7.79 32.74 12.55
3/6/2021 12:45:00 PM 5.65 42.17 0.448 7.8 34.65 12.58
3/6/2021 1:00:00 PM 5.71 42.278 0.448 7.8 31.4 12.57
3/6/2021 1:15:00 PM 5.75 42.35 0.447 7.8 30.22 12.56
3/6/2021 1:30:00 PM 5.79 42.422 0.448 7.8 39.6 12.52
3/6/2021 1:45:00 PM 5.84 42.512 0.448 7.81 31.58 12.54
3/6/2021 2:00:00 PM 5.9 42.62 0.45 7.81 30.82 12.55
3/6/2021 2:15:00 PM 5.95 42.71 0.45 7.81 30.79 12.52
3/6/2021 2:30:00 PM 5.98 42.764 0.45 7.81 31.97 12.52
3/6/2021 2:45:00 PM 6.03 42.854 0.449 7.82 29.57 12.51
3/6/2021 3:00:00 PM 6.09 42.962 0.448 7.82 34.08 12.5
3/6/2021 3:15:00 PM 6.14 43.052 0.448 7.82 32.12 12.47
3/6/2021 3:30:00 PM 6.17 43.106 0.447 7.82 34.34 12.43
3/6/2021 3:45:00 PM 6.22 43.196 0.447 7.82 28.71 12.42
3/6/2021 4:00:00 PM 6.25 43.25 0.447 7.82 33.32 12.38
3/6/2021 4:15:00 PM 6.28 43.304 0.448 7.82 34.71 12.34
3/6/2021 4:30:00 PM 6.31 43.358 0.448 7.82 35.59 12.31
3/6/2021 4:45:00 PM 6.31 43.358 0.448 7.82 39.38 12.25
3/6/2021 5:00:00 PM 6.32 43.376 0.448 7.81 36.96 12.21
3/6/2021 5:15:00 PM 6.34 43.412 0.448 7.81 31.13 12.16
3/6/2021 5:30:00 PM 6.34 43.412 0.449 7.81 31.53 12.09
3/6/2021 5:45:00 PM 6.33 43.394 0.451 7.8 30.82 12.05
3/6/2021 6:00:00 PM 6.3 43.34 0.452 7.8 34.78 12.01
3/6/2021 6:15:00 PM 6.27 43.286 0.451 7.8 32.34 11.96
3/6/2021 6:30:00 PM 6.25 43.25 0.45 7.8 34.36 11.93
3/6/2021 6:45:00 PM 6.23 43.214 0.449 7.8 36.82 11.89
3/6/2021 7:00:00 PM 6.2 43.16 0.449 7.79 39.6 11.85
3/6/2021 7:15:00 PM 6.15 43.07 0.449 7.79 38.02 11.81
3/6/2021 7:30:00 PM 6.12 43.016 0.449 7.79 38.56 11.8
3/6/2021 7:45:00 PM 6.08 42.944 0.448 7.79 34.08 11.79
3/6/2021 8:00:00 PM 6.06 42.908 0.449 7.78 36.76 11.75
3/6/2021 8:15:00 PM 6.03 42.854 0.449 7.78 31.52 11.73
3/6/2021 8:30:00 PM 5.99 42.782 0.449 7.78 35.55 11.71
3/6/2021 8:45:00 PM 5.94 42.692 0.45 7.77 33.82 11.71
3/6/2021 9:00:00 PM 5.9 42.62 0.45 7.77 36.32 11.7
3/6/2021 9:15:00 PM 5.86 42.548 0.45 7.77 39.02 11.67
3/6/2021 9:30:00 PM 5.82 42.476 0.45 7.76 43.65 11.66
3/6/2021 9:45:00 PM 5.77 42.386 0.45 7.76 42.96 11.67
3/6/2021 10:00:00 PM 5.72 42.296 0.451 7.75 43.96 11.67
3/6/2021 10:15:00 PM 5.68 42.224 0.451 7.76 37.73 11.67
3/6/2021 10:30:00 PM 5.63 42.134 0.451 7.76 43.87 11.67
3/6/2021 10:45:00 PM 5.57 42.026 0.451 7.76 39.28 11.66
3/6/2021 11:00:00 PM 5.51 41.918 0.451 7.76 41.34 11.68
3/6/2021 11:15:00 PM 5.46 41.828 0.451 7.75 43.63 11.68
3/6/2021 11:30:00 PM 5.42 41.756 0.452 7.76 44.01 11.68
3/6/2021 11:45:00 PM 5.37 41.666 0.452 7.75 39.87 11.69
3/7/2021 12:00:00 AM 5.32 41.576 0.452 7.74 44.11 11.72
3/7/2021 12:15:00 AM 5.27 41.486 0.452 7.75 38.92 11.73
3/7/2021 12:30:00 AM 5.23 41.414 0.452 7.74 46.08 11.72
3/7/2021 12:45:00 AM 5.18 41.324 0.452 7.74 38.78 11.75
3/7/2021 1:00:00 AM 5.14 41.252 0.452 7.75 45.18 11.76
3/7/2021 1:15:00 AM 5.1 41.18 0.453 7.75 43.18 11.77
3/7/2021 1:30:00 AM 5.06 41.108 0.454 7.75 46.7 11.78
3/7/2021 1:45:00 AM 5.02 41.036 0.453 7.74 42.9 11.8
3/7/2021 2:00:00 AM 4.98 40.964 0.454 7.74 41.52 11.82
3/7/2021 2:15:00 AM 4.94 40.892 0.453 7.71 46.48 11.83
3/7/2021 2:30:00 AM 4.91 40.838 0.454 7.74 51.63 11.85
3/7/2021 2:45:00 AM 4.88 40.784 0.454 7.71 52.84 11.85
3/7/2021 3:00:00 AM 4.84 40.712 0.454 7.74 48.8 11.87
3/7/2021 3:15:00 AM 4.82 40.676 0.455 7.74 41.03 11.88
3/7/2021 3:30:00 AM 4.79 40.622 0.455 7.75 52.96 11.87
3/7/2021 3:45:00 AM 4.75 40.55 0.455 7.75 45.24 11.89
3/7/2021 4:00:00 AM 4.73 40.514 0.455 7.75 43.17 11.89
3/7/2021 4:15:00 AM 4.71 40.478 0.455 7.74 42.86 11.92
3/7/2021 4:30:00 AM 4.68 40.424 0.455 7.72 58.04 11.93
3/7/2021 4:45:00 AM 4.65 40.37 0.455 7.74 48.69 11.94
3/7/2021 5:00:00 AM 4.62 40.316 0.455 7.75 48.11 11.96
3/7/2021 5:15:00 AM 4.59 40.262 0.456 7.74 39.64 11.97
3/7/2021 5:30:00 AM 4.57 40.226 0.456 7.75 40.49 11.98
3/7/2021 5:45:00 AM 4.55 40.19 0.456 7.75 43.52 11.99
3/7/2021 6:00:00 AM 4.53 40.154 0.456 7.72 43.95 12
3/7/2021 6:15:00 AM 4.5 40.1 0.457 7.75 51.6 12
3/7/2021 6:30:00 AM 4.48 40.064 0.457 7.75 52.33 12.02
3/7/2021 6:45:00 AM 4.46 40.028 0.457 7.75 53.31 12.03
3/7/2021 7:00:00 AM 4.44 39.992 0.457 7.75 44.95 12.05
3/7/2021 7:15:00 AM 4.42 39.956 0.457 7.75 40.22 12.08
3/7/2021 7:30:00 AM 4.42 39.956 0.457 7.76 47.84 12.12
3/7/2021 7:45:00 AM 4.43 39.974 0.457 7.75 45.66 12.17
3/7/2021 8:00:00 AM 4.45 40.01 0.458 7.76 46.17 12.22
3/7/2021 8:15:00 AM 4.49 40.082 0.458 7.76 50.4 12.3
3/7/2021 8:30:00 AM 4.54 40.172 0.457 7.77 44.46 12.37
3/7/2021 8:45:00 AM 4.6 40.28 0.457 7.74 45.28 12.43
3/7/2021 9:00:00 AM 4.68 40.424 0.457 7.77 43.02 12.48
3/7/2021 9:15:00 AM 4.77 40.586 0.457 7.78 48.29 12.55
3/7/2021 9:30:00 AM 4.87 40.766 0.457 7.79 48.55 12.61
3/7/2021 9:45:00 AM 4.99 40.982 0.458 7.78 37 12.67
3/7/2021 10:00:00 AM 5.11 41.198 0.457 7.8 44.01 12.72
3/7/2021 10:15:00 AM 5.26 41.468 0.457 7.8 40.44 12.75
3/7/2021 10:30:00 AM 5.41 41.738 0.457 7.81 42.57 12.8
3/7/2021 10:45:00 AM 5.58 42.044 0.458 7.82 47.22 12.84
3/7/2021 11:00:00 AM 5.75 42.35 0.458 7.82 44.65 12.87
3/7/2021 11:15:00 AM 5.94 42.692 0.458 7.82 54.06 12.9
3/7/2021 11:30:00 AM 6.12 43.016 0.458 7.83 44.62 12.93
3/7/2021 11:45:00 AM 6.33 43.394 0.458 7.83 39.61 12.94
3/7/2021 12:00:00 PM 6.54 43.772 0.458 7.84 47.86 12.94
3/7/2021 12:15:00 PM 6.75 44.15 0.458 7.8 44.45 12.96
3/7/2021 12:30:00 PM 6.96 44.528 0.457 7.84 42.93 12.96
3/7/2021 12:45:00 PM 7.17 44.906 0.457 7.85 42.06 12.96
3/7/2021 1:00:00 PM 7.38 45.284 0.457 7.85 44.3 12.94
3/7/2021 1:15:00 PM 7.58 45.644 0.457 7.85 47.85 12.91
3/7/2021 1:30:00 PM 7.79 46.022 0.456 7.86 46.41 12.88
3/7/2021 1:45:00 PM 8 46.4 0.456 7.86 46.31 12.86
3/7/2021 2:00:00 PM 8.2 46.76 0.456 7.87 37.56 12.82
3/7/2021 2:15:00 PM 8.38 47.084 0.455 7.86 43.09 12.79
3/7/2021 2:30:00 PM 8.55 47.39 0.456 7.87 49.24 12.75
3/7/2021 2:45:00 PM 8.7 47.66 0.454 7.87 44.01 12.68
3/7/2021 3:00:00 PM 8.84 47.912 0.455 7.88 56.15 12.61
3/7/2021 3:15:00 PM 8.97 48.146 0.454 7.88 53.44 12.58
3/7/2021 3:30:00 PM 9.1 48.38 0.454 7.88 49.91 12.49
3/7/2021 3:45:00 PM 9.21 48.578 0.455 7.88 57.23 12.41
3/7/2021 4:00:00 PM 9.3 48.74 0.453 7.85 53.08 12.35
3/7/2021 4:15:00 PM 9.39 48.902 0.453 7.88 48.28 12.24
3/7/2021 4:30:00 PM 9.45 49.01 0.453 7.88 44.29 12.17
3/7/2021 4:45:00 PM 9.47 49.046 0.453 7.88 51.2 12.04
3/7/2021 5:00:00 PM 9.49 49.082 0.453 7.88 61.18 11.94
3/7/2021 5:15:00 PM 9.48 49.064 0.453 7.87 54.95 11.82
3/7/2021 5:30:00 PM 9.49 49.082 0.453 7.87 49.99 11.72
3/7/2021 5:45:00 PM 9.47 49.046 0.453 7.86 50.19 11.6
3/7/2021 6:00:00 PM 9.45 49.01 0.453 7.86 46.44 11.49
3/7/2021 6:15:00 PM 9.41 48.938 0.453 7.85 52 11.4
3/7/2021 6:30:00 PM 9.36 48.848 0.453 7.84 52.54 11.32
3/7/2021 6:45:00 PM 9.31 48.758 0.454 7.81 45.8 11.23
3/7/2021 7:00:00 PM 9.23 48.614 0.454 7.84 52.66 11.17
3/7/2021 7:15:00 PM 9.15 48.47 0.454 7.83 46.37 11.13
3/7/2021 7:30:00 PM 9.06 48.308 0.454 7.83 46.87 11.1
3/7/2021 7:45:00 PM 8.95 48.11 0.454 7.82 51.51 11.05
3/7/2021 8:00:00 PM 8.85 47.93 0.454 7.81 46.71 11.03
3/7/2021 8:15:00 PM 8.75 47.75 0.455 7.81 54.82 11
3/7/2021 8:30:00 PM 8.64 47.552 0.455 7.81 60.37 10.99
3/7/2021 8:45:00 PM 8.51 47.318 0.455 7.8 74.42 10.99
3/7/2021 9:00:00 PM 8.38 47.084 0.455 7.76 62.3 10.97
3/7/2021 9:15:00 PM 8.24 46.832 0.456 7.8 59.64 10.97
3/7/2021 9:30:00 PM 8.1 46.58 0.457 7.79 56.56 10.99
3/7/2021 9:45:00 PM 7.96 46.328 0.457 7.78 60.15 10.98
3/7/2021 10:00:00 PM 7.82 46.076 0.457 7.78 54.76 11

These are provisional data and have not been subject to a quality assurance process, but rather are the raw data reported by the instrument.
H: value is above sensor operating range
L: value is below sensor operating range
Offline: station is not reporting data
NC: parameter is not collected at site

Data Availability & Limitations

Uncertainty and potential for error can be associated with environmental monitoring data. Provisional data have not been subject to a quality assurance process, but rather are the raw data reported by the instrument. Data users are cautioned to consider carefully the provisional nature of the information before using it for decisions that concern personal or public safety or the conduct of business that involves substantial monetary or operational consequences.

Approved data are currently available by request by emailing: srbc@srbc.net. Approved data have been subject to a quality assurance process to correct for equipment or fouling drift. Data recorded during equipment malfunctions have been removed.

View Historical Stations that have been discontinued.